Observation data for Lomax on 05/14/2018      Previous  Date  Next       Current Mesonet Observations  Soil Data  Daily Summary Page  Observations in Plain Language
KLO1 140500Z 19015KT 26/17 A2992 RMK A01 T02610167  RH  056%=      5-min Rain = 0
KLO1 140501Z 19017KT 26/17 A2992 RMK A01 T02600167  RH  056%=      5-min Rain = 0
KLO1 140502Z 18014KT 26/17 A2992 RMK A01 T02600167  RH  057%=      5-min Rain = 0
KLO1 140503Z 19014KT 26/17 A2992 RMK A01 T02600167  RH  057%=      5-min Rain = 0
KLO1 140504Z 19019G25KT 26/17 A2992 RMK A01 T02590167  RH  057%=      5-min Rain = 0
KLO1 140505Z 19016KT 26/17 A2992 RMK A01 T02590168  RH  057%=      5-min Rain = 0
KLO1 140506Z 19017KT 26/17 A2992 RMK A01 T02590168  RH  057%=      5-min Rain = 0
KLO1 140507Z 18016KT 26/17 A2992 RMK A01 T02590168  RH  057%=      5-min Rain = 0
KLO1 140508Z 19017KT 26/17 A2992 RMK A01 T02590168  RH  057%=      5-min Rain = 0
KLO1 140509Z 19018KT 26/17 A2992 RMK A01 T02590168  RH  057%=      5-min Rain = 0
KLO1 140510Z 18018KT 26/17 A2992 RMK A01 T02590168  RH  057%=      5-min Rain = 0
KLO1 140511Z 19014KT 26/17 A2992 RMK A01 T02590169  RH  057%=      5-min Rain = 0
KLO1 140512Z 19018KT 26/17 A2992 RMK A01 T02580168  RH  057%=      5-min Rain = 0
KLO1 140513Z 19020KT 26/17 A2992 RMK A01 T02580168  RH  058%=      5-min Rain = 0
KLO1 140514Z 19017G22KT 26/17 A2992 RMK A01 T02580169  RH  058%=      5-min Rain = 0
KLO1 140515Z 19019KT 26/17 A2992 RMK A01 T02580169  RH  058%=      5-min Rain = 0
KLO1 140516Z 18018KT 26/17 A2992 RMK A01 T02580169  RH  058%=      5-min Rain = 0
KLO1 140517Z 19018KT 26/17 A2992 RMK A01 T02580169  RH  058%=      5-min Rain = 0
KLO1 140518Z 18015KT 26/17 A2992 RMK A01 T02580169  RH  058%=      5-min Rain = 0
KLO1 140519Z 19017KT 26/17 A2992 RMK A01 T02580169  RH  058%=      5-min Rain = 0
KLO1 140520Z 19017KT 26/17 A2992 RMK A01 T02580170  RH  058%=      5-min Rain = 0
KLO1 140521Z 19015G20KT 26/17 A2992 RMK A01 T02580170  RH  058%=      5-min Rain = 0
KLO1 140522Z 19017KT 26/17 A2992 RMK A01 T02570169  RH  058%=      5-min Rain = 0
KLO1 140523Z 19017KT 26/17 A2992 RMK A01 T02570170  RH  058%=      5-min Rain = 0
KLO1 140524Z 19016KT 26/17 A2992 RMK A01 T02570170  RH  059%=      5-min Rain = 0
KLO1 140525Z 19017KT 26/17 A2992 RMK A01 T02570170  RH  059%=      5-min Rain = 0
KLO1 140526Z 19019KT 26/17 A2992 RMK A01 T02560170  RH  059%=      5-min Rain = 0
KLO1 140527Z 19017KT 26/17 A2992 RMK A01 T02560170  RH  059%=      5-min Rain = 0
KLO1 140528Z 18017G22KT 26/17 A2992 RMK A01 T02560170  RH  059%=      5-min Rain = 0
KLO1 140529Z 19019KT 26/17 A2992 RMK A01 T02570170  RH  059%=      5-min Rain = 0
KLO1 140530Z 19015KT 26/17 A2992 RMK A01 T02560170  RH  059%=      5-min Rain = 0
KLO1 140531Z 18015KT 26/17 A2992 RMK A01 T02560170  RH  059%=      5-min Rain = 0
KLO1 140532Z 18016KT 26/17 A2992 RMK A01 T02560170  RH  059%=      5-min Rain = 0
KLO1 140533Z 18015KT 26/17 A2992 RMK A01 T02560170  RH  059%=      5-min Rain = 0
KLO1 140534Z 19013KT 26/17 A2992 RMK A01 T02560170  RH  059%=      5-min Rain = 0
KLO1 140535Z 18014KT 26/17 A2992 RMK A01 T02550170  RH  059%=      5-min Rain = 0
KLO1 140536Z 18014KT 26/17 A2992 RMK A01 T02550170  RH  059%=      5-min Rain = 0
KLO1 140537Z 18016KT 26/17 A2992 RMK A01 T02550170  RH  059%=      5-min Rain = 0
KLO1 140538Z 18016KT 26/17 A2992 RMK A01 T02550170  RH  060%=      5-min Rain = 0
KLO1 140539Z 18014KT 26/17 A2992 RMK A01 T02550170  RH  060%=      5-min Rain = 0
KLO1 140540Z 18015KT 25/17 A2992 RMK A01 T02540170  RH  060%=      5-min Rain = 0
KLO1 140541Z 18014G19KT 25/17 A2993 RMK A01 T02540170  RH  060%=      5-min Rain = 0
KLO1 140542Z 18014KT 25/17 A2992 RMK A01 T02540170  RH  060%=      5-min Rain = 0
KLO1 140543Z 18015KT 25/17 A2992 RMK A01 T02540170  RH  060%=      5-min Rain = 0
KLO1 140544Z 18016G21KT 25/17 A2992 RMK A01 T02540171  RH  060%=      5-min Rain = 0
KLO1 140545Z 18014KT 25/17 A2993 RMK A01 T02540170  RH  060%=      5-min Rain = 0
KLO1 140546Z 18012KT 25/17 A2993 RMK A01 T02540170  RH  060%=      5-min Rain = 0
KLO1 140547Z 18015KT 25/17 A2993 RMK A01 T02540170  RH  060%=      5-min Rain = 0
KLO1 140548Z 18012KT 25/17 A2992 RMK A01 T02540171  RH  060%=      5-min Rain = 0
KLO1 140549Z 18015KT 25/17 A2992 RMK A01 T02530170  RH  060%=      5-min Rain = 0
KLO1 140550Z 18014KT 25/17 A2992 RMK A01 T02530170  RH  060%=      5-min Rain = 0
KLO1 140551Z 18014KT 25/17 A2993 RMK A01 T02530170  RH  060%=      5-min Rain = 0
KLO1 140552Z 17012KT 25/17 A2993 RMK A01 T02530170  RH  060%=      5-min Rain = 0
KLO1 140553Z 18014KT 25/17 A2993 RMK A01 T02530170  RH  060%=      5-min Rain = 0
KLO1 140554Z 18011KT 25/17 A2993 RMK A01 T02530170  RH  060%=      5-min Rain = 0
KLO1 140555Z 18012KT 25/17 A2993 RMK A01 T02530170  RH  060%=      5-min Rain = 0
KLO1 140556Z 18010KT 25/17 A2993 RMK A01 T02520170  RH  060%=      5-min Rain = 0
KLO1 140557Z 17011KT 25/17 A2993 RMK A01 T02520170  RH  061%=      5-min Rain = 0
KLO1 140558Z 17011KT 25/17 A2993 RMK A01 T02510170  RH  061%=      5-min Rain = 0
KLO1 140559Z 18011KT 25/17 A2993 RMK A01 T02520170  RH  061%=      5-min Rain = 0
KLO1 140600Z 17010KT 25/17 A2993 RMK A01 T02510170  RH  061%=      5-min Rain = 0
KLO1 140601Z 17011KT 25/17 A2993 RMK A01 T02510170  RH  061%=      5-min Rain = 0
KLO1 140602Z 17010KT 25/17 A2993 RMK A01 T02510170  RH  061%=      5-min Rain = 0
KLO1 140603Z 17010KT 25/17 A2993 RMK A01 T02510170  RH  061%=      5-min Rain = 0
KLO1 140604Z 17009KT 25/17 A2993 RMK A01 T02500170  RH  061%=      5-min Rain = 0
KLO1 140605Z 17008KT 25/17 A2993 RMK A01 T02500170  RH  061%=      5-min Rain = 0
KLO1 140606Z 17009KT 25/17 A2993 RMK A01 T02500170  RH  061%=      5-min Rain = 0
KLO1 140607Z 17009KT 25/17 A2993 RMK A01 T02500170  RH  061%=      5-min Rain = 0
KLO1 140608Z 17009KT 25/17 A2993 RMK A01 T02500170  RH  061%=      5-min Rain = 0
KLO1 140609Z 17009KT 25/17 A2993 RMK A01 T02500170  RH  061%=      5-min Rain = 0
KLO1 140610Z 17009KT 25/17 A2993 RMK A01 T02490170  RH  061%=      5-min Rain = 0
KLO1 140611Z 17009KT 25/17 A2993 RMK A01 T02500170  RH  061%=      5-min Rain = 0
KLO1 140612Z 17007KT 25/17 A2993 RMK A01 T02490170  RH  061%=      5-min Rain = 0
KLO1 140613Z 17010KT 25/17 A2993 RMK A01 T02490170  RH  061%=      5-min Rain = 0
KLO1 140614Z 17009KT 25/17 A2993 RMK A01 T02490170  RH  061%=      5-min Rain = 0
KLO1 140615Z 17008KT 25/17 A2993 RMK A01 T02490170  RH  061%=      5-min Rain = 0
KLO1 140616Z 18008KT 25/17 A2993 RMK A01 T02490170  RH  061%=      5-min Rain = 0
KLO1 140617Z 17008KT 25/17 A2993 RMK A01 T02480170  RH  062%=      5-min Rain = 0
KLO1 140618Z 17007KT 25/17 A2993 RMK A01 T02480170  RH  062%=      5-min Rain = 0
KLO1 140619Z 18007KT 25/17 A2993 RMK A01 T02480170  RH  062%=      5-min Rain = 0
KLO1 140620Z 18007KT 25/17 A2993 RMK A01 T02480170  RH  062%=      5-min Rain = 0
KLO1 140621Z 17009KT 25/17 A2993 RMK A01 T02470170  RH  062%=      5-min Rain = 0
KLO1 140622Z 18009KT 25/17 A2993 RMK A01 T02470170  RH  062%=      5-min Rain = 0
KLO1 140623Z 18008KT 25/17 A2993 RMK A01 T02470170  RH  062%=      5-min Rain = 0
KLO1 140624Z 18008KT 25/17 A2993 RMK A01 T02470170  RH  062%=      5-min Rain = 0
KLO1 140625Z 17007KT 25/17 A2993 RMK A01 T02470170  RH  062%=      5-min Rain = 0
KLO1 140626Z 17007KT 25/17 A2993 RMK A01 T02460169  RH  062%=      5-min Rain = 0
KLO1 140627Z 17007KT 25/17 A2993 RMK A01 T02460169  RH  062%=      5-min Rain = 0
KLO1 140628Z 18008KT 25/17 A2993 RMK A01 T02460169  RH  062%=      5-min Rain = 0
KLO1 140629Z 18007KT 25/17 A2993 RMK A01 T02450169  RH  063%=      5-min Rain = 0
KLO1 140630Z 18008KT 25/17 A2993 RMK A01 T02450170  RH  063%=      5-min Rain = 0
KLO1 140631Z 18008KT 25/17 A2993 RMK A01 T02450170  RH  063%=      5-min Rain = 0
KLO1 140632Z 18006KT 25/17 A2993 RMK A01 T02450169  RH  063%=      5-min Rain = 0
KLO1 140633Z 18005KT 25/17 A2993 RMK A01 T02450170  RH  063%=      5-min Rain = 0
KLO1 140634Z 17006KT 25/17 A2993 RMK A01 T02450170  RH  063%=      5-min Rain = 0
KLO1 140635Z 18006KT 24/17 A2993 RMK A01 T02440169  RH  063%=      5-min Rain = 0
KLO1 140636Z 18006KT 24/17 A2993 RMK A01 T02440170  RH  063%=      5-min Rain = 0
KLO1 140637Z 17005KT 24/17 A2993 RMK A01 T02440170  RH  063%=      5-min Rain = 0
KLO1 140638Z 17006KT 24/17 A2993 RMK A01 T02430169  RH  063%=      5-min Rain = 0
KLO1 140639Z 18005KT 24/17 A2993 RMK A01 T02430169  RH  063%=      5-min Rain = 0
KLO1 140640Z 17005KT 24/17 A2993 RMK A01 T02430169  RH  064%=      5-min Rain = 0
KLO1 140641Z 18005KT 24/17 A2993 RMK A01 T02430169  RH  064%=      5-min Rain = 0
KLO1 140642Z 17005KT 24/17 A2993 RMK A01 T02420169  RH  064%=      5-min Rain = 0
KLO1 140643Z 17004KT 24/17 A2993 RMK A01 T02420169  RH  064%=      5-min Rain = 0
KLO1 140644Z 17004KT 24/17 A2993 RMK A01 T02420169  RH  064%=      5-min Rain = 0
KLO1 140645Z 16003KT 24/17 A2993 RMK A01 T02410169  RH  064%=      5-min Rain = 0
KLO1 140646Z 17003KT 24/17 A2993 RMK A01 T02410169  RH  064%=      5-min Rain = 0
KLO1 140647Z 16002KT 24/17 A2993 RMK A01 T02410169  RH  064%=      5-min Rain = 0
KLO1 140648Z 16002KT 24/17 A2993 RMK A01 T02410169  RH  064%=      5-min Rain = 0
KLO1 140649Z 16003KT 24/17 A2993 RMK A01 T02410170  RH  064%=      5-min Rain = 0
KLO1 140650Z 15002KT 24/17 A2993 RMK A01 T02410169  RH  064%=      5-min Rain = 0
KLO1 140651Z 14002KT 24/17 A2993 RMK A01 T02410169  RH  064%=      5-min Rain = 0
KLO1 140652Z 13001KT 24/17 A2993 RMK A01 T02410169  RH  064%=      5-min Rain = 0
KLO1 140653Z 11001KT 24/17 A2993 RMK A01 T02400169  RH  064%=      5-min Rain = 0
KLO1 140654Z 13001KT 24/17 A2993 RMK A01 T02400169  RH  064%=      5-min Rain = 0
KLO1 140655Z 13001KT 24/17 A2993 RMK A01 T02390168  RH  064%=      5-min Rain = 0
KLO1 140656Z 15002KT 24/17 A2993 RMK A01 T02380168  RH  064%=      5-min Rain = 0
KLO1 140657Z 15001KT 24/17 A2993 RMK A01 T02370168  RH  065%=      5-min Rain = 0
KLO1 140658Z 16002KT 24/17 A2993 RMK A01 T02370168  RH  065%=      5-min Rain = 0
KLO1 140659Z 16003KT 24/17 A2993 RMK A01 T02360168  RH  065%=      5-min Rain = 0
KLO1 140700Z 15002KT 24/17 A2993 RMK A01 T02360168  RH  066%=      5-min Rain = 0
KLO1 140701Z 15003KT 24/17 A2993 RMK A01 T02370169  RH  066%=      5-min Rain = 0
KLO1 140702Z 16004KT 24/17 A2993 RMK A01 T02360169  RH  066%=      5-min Rain = 0
KLO1 140703Z 16003KT 24/17 A2993 RMK A01 T02360169  RH  066%=      5-min Rain = 0
KLO1 140704Z 16003KT 24/17 A2993 RMK A01 T02360169  RH  066%=      5-min Rain = 0
KLO1 140705Z 16003KT 24/17 A2993 RMK A01 T02360169  RH  066%=      5-min Rain = 0
KLO1 140706Z 15003KT 24/17 A2993 RMK A01 T02360168  RH  066%=      5-min Rain = 0
KLO1 140707Z 16003KT 24/17 A2993 RMK A01 T02360168  RH  066%=      5-min Rain = 0
KLO1 140708Z 16003KT 24/17 A2993 RMK A01 T02350168  RH  066%=      5-min Rain = 0
KLO1 140709Z 15003KT 24/17 A2994 RMK A01 T02350167  RH  066%=      5-min Rain = 0
KLO1 140710Z 15003KT 23/17 A2993 RMK A01 T02340167  RH  066%=      5-min Rain = 0
KLO1 140711Z 15003KT 23/17 A2993 RMK A01 T02340167  RH  066%=      5-min Rain = 0
KLO1 140712Z 15004KT 23/17 A2994 RMK A01 T02330167  RH  066%=      5-min Rain = 0
KLO1 140713Z 15003KT 23/17 A2993 RMK A01 T02330167  RH  066%=      5-min Rain = 0
KLO1 140714Z 16004KT 23/17 A2993 RMK A01 T02320167  RH  067%=      5-min Rain = 0
KLO1 140715Z 16004KT 23/17 A2993 RMK A01 T02320167  RH  067%=      5-min Rain = 0
KLO1 140716Z 16005KT 23/17 A2993 RMK A01 T02320168  RH  067%=      5-min Rain = 0
KLO1 140717Z 16005KT 23/17 A2993 RMK A01 T02320167  RH  067%=      5-min Rain = 0
KLO1 140718Z 16005KT 23/17 A2993 RMK A01 T02320166  RH  066%=      5-min Rain = 0
KLO1 140719Z 17006KT 23/17 A2993 RMK A01 T02310166  RH  067%=      5-min Rain = 0
KLO1 140720Z 17006KT 23/17 A2993 RMK A01 T02310166  RH  067%=      5-min Rain = 0
KLO1 140721Z 17006KT 23/17 A2993 RMK A01 T02310166  RH  067%=      5-min Rain = 0
KLO1 140722Z 17007KT 23/17 A2993 RMK A01 T02300166  RH  067%=      5-min Rain = 0
KLO1 140723Z 17007KT 23/17 A2993 RMK A01 T02300165  RH  067%=      5-min Rain = 0
KLO1 140724Z 17007KT 23/17 A2993 RMK A01 T02290166  RH  067%=      5-min Rain = 0
KLO1 140725Z 17007KT 23/17 A2993 RMK A01 T02290166  RH  068%=      5-min Rain = 0
KLO1 140726Z 17008KT 23/17 A2992 RMK A01 T02290166  RH  068%=      5-min Rain = 0
KLO1 140727Z 17008KT 23/17 A2992 RMK A01 T02280166  RH  068%=      5-min Rain = 0
KLO1 140728Z 17008KT 23/17 A2992 RMK A01 T02290167  RH  068%=      5-min Rain = 0
KLO1 140729Z 17008KT 23/17 A2992 RMK A01 T02290167  RH  068%=      5-min Rain = 0
KLO1 140730Z 17009KT 23/17 A2992 RMK A01 T02300168  RH  068%=      5-min Rain = 0
KLO1 140731Z 17008KT 23/17 A2992 RMK A01 T02300168  RH  068%=      5-min Rain = 0
KLO1 140732Z 17008KT 23/17 A2992 RMK A01 T02310168  RH  068%=      5-min Rain = 0
KLO1 140733Z 17009KT 23/17 A2992 RMK A01 T02310169  RH  068%=      5-min Rain = 0
KLO1 140734Z 17009KT 23/17 A2992 RMK A01 T02320169  RH  068%=      5-min Rain = 0
KLO1 140735Z 17009KT 23/17 A2992 RMK A01 T02320169  RH  068%=      5-min Rain = 0
KLO1 140736Z 17009KT 23/17 A2992 RMK A01 T02330169  RH  067%=      5-min Rain = 0
KLO1 140737Z 17009KT 23/17 A2992 RMK A01 T02330169  RH  067%=      5-min Rain = 0
KLO1 140738Z 17010KT 23/17 A2992 RMK A01 T02330170  RH  067%=      5-min Rain = 0
KLO1 140739Z 17010KT 23/17 A2992 RMK A01 T02340170  RH  067%=      5-min Rain = 0
KLO1 140740Z 17010KT 24/17 A2992 RMK A01 T02350170  RH  067%=      5-min Rain = 0
KLO1 140741Z 17010KT 24/17 A2992 RMK A01 T02350170  RH  067%=      5-min Rain = 0
KLO1 140742Z 17009KT 24/17 A2992 RMK A01 T02350170  RH  067%=      5-min Rain = 0
KLO1 140743Z 16009KT 24/17 A2992 RMK A01 T02350170  RH  067%=      5-min Rain = 0
KLO1 140744Z 17008KT 24/17 A2992 RMK A01 T02350171  RH  067%=      5-min Rain = 0
KLO1 140745Z 16008KT 24/17 A2992 RMK A01 T02350171  RH  067%=      5-min Rain = 0
KLO1 140746Z 17008KT 24/17 A2992 RMK A01 T02350171  RH  067%=      5-min Rain = 0
KLO1 140747Z 17008KT 24/17 A2992 RMK A01 T02350171  RH  067%=      5-min Rain = 0
KLO1 140748Z 17009KT 24/17 A2992 RMK A01 T02350171  RH  067%=      5-min Rain = 0
KLO1 140749Z 17008KT 24/17 A2992 RMK A01 T02350171  RH  067%=      5-min Rain = 0
KLO1 140750Z 17008KT 24/17 A2992 RMK A01 T02350171  RH  067%=      5-min Rain = 0
KLO1 140751Z 17008KT 24/17 A2992 RMK A01 T02350171  RH  067%=      5-min Rain = 0
KLO1 140752Z 17008KT 24/17 A2992 RMK A01 T02350171  RH  067%=      5-min Rain = 0
KLO1 140753Z 17008KT 24/17 A2992 RMK A01 T02350171  RH  067%=      5-min Rain = 0
KLO1 140754Z 17008KT 24/17 A2992 RMK A01 T02350171  RH  067%=      5-min Rain = 0
KLO1 140755Z 16008KT 24/17 A2992 RMK A01 T02350171  RH  067%=      5-min Rain = 0
KLO1 140756Z 16007KT 24/17 A2992 RMK A01 T02350171  RH  067%=      5-min Rain = 0
KLO1 140757Z 16007KT 24/17 A2992 RMK A01 T02360172  RH  067%=      5-min Rain = 0
KLO1 140758Z 17007KT 24/17 A2992 RMK A01 T02350171  RH  067%=      5-min Rain = 0
KLO1 140759Z 16007KT 24/17 A2992 RMK A01 T02350171  RH  068%=      5-min Rain = 0
KLO1 140800Z 16006KT 23/17 A2992 RMK A01 T02340171  RH  068%=      5-min Rain = 0
KLO1 140801Z 16007KT 23/17 A2992 RMK A01 T02340171  RH  068%=      5-min Rain = 0
KLO1 140802Z 16007KT 23/17 A2992 RMK A01 T02330171  RH  068%=      5-min Rain = 0
KLO1 140803Z 16007KT 23/17 A2992 RMK A01 T02330171  RH  068%=      5-min Rain = 0
KLO1 140804Z 16006KT 23/17 A2992 RMK A01 T02330171  RH  068%=      5-min Rain = 0
KLO1 140805Z 16007KT 23/17 A2992 RMK A01 T02330171  RH  068%=      5-min Rain = 0
KLO1 140806Z 16006KT 23/17 A2992 RMK A01 T02330171  RH  068%=      5-min Rain = 0
KLO1 140807Z 16007KT 23/17 A2992 RMK A01 T02330172  RH  068%=      5-min Rain = 0
KLO1 140808Z 16006KT 23/17 A2992 RMK A01 T02320171  RH  068%=      5-min Rain = 0
KLO1 140809Z 16006KT 23/17 A2992 RMK A01 T02320171  RH  069%=      5-min Rain = 0
KLO1 140810Z 16006KT 23/17 A2992 RMK A01 T02320171  RH  069%=      5-min Rain = 0
KLO1 140811Z 15006KT 23/17 A2992 RMK A01 T02320171  RH  069%=      5-min Rain = 0
KLO1 140812Z 16006KT 23/17 A2992 RMK A01 T02320171  RH  069%=      5-min Rain = 0
KLO1 140813Z 16006KT 23/17 A2992 RMK A01 T02320171  RH  069%=      5-min Rain = 0
KLO1 140814Z 16006KT 23/17 A2992 RMK A01 T02320171  RH  069%=      5-min Rain = 0
KLO1 140815Z 16006KT 23/17 A2992 RMK A01 T02310171  RH  069%=      5-min Rain = 0
KLO1 140816Z 16006KT 23/17 A2992 RMK A01 T02310171  RH  069%=      5-min Rain = 0
KLO1 140817Z 16006KT 23/17 A2992 RMK A01 T02310171  RH  069%=      5-min Rain = 0
KLO1 140818Z 16005KT 23/17 A2992 RMK A01 T02310171  RH  069%=      5-min Rain = 0
KLO1 140819Z 16006KT 23/17 A2992 RMK A01 T02310171  RH  069%=      5-min Rain = 0
KLO1 140820Z 16005KT 23/17 A2992 RMK A01 T02310171  RH  069%=      5-min Rain = 0
KLO1 140821Z 16005KT 23/17 A2992 RMK A01 T02310171  RH  069%=      5-min Rain = 0
KLO1 140822Z 16005KT 23/17 A2992 RMK A01 T02310171  RH  069%=      5-min Rain = 0
KLO1 140823Z 15005KT 23/17 A2992 RMK A01 T02310171  RH  069%=      5-min Rain = 0
KLO1 140824Z 15006KT 23/17 A2992 RMK A01 T02310171  RH  069%=      5-min Rain = 0
KLO1 140825Z 15005KT 23/17 A2992 RMK A01 T02300170  RH  069%=      5-min Rain = 0
KLO1 140826Z 15005KT 23/17 A2992 RMK A01 T02300171  RH  069%=      5-min Rain = 0
KLO1 140827Z 15006KT 23/17 A2992 RMK A01 T02300170  RH  069%=      5-min Rain = 0
KLO1 140828Z 15006KT 23/17 A2992 RMK A01 T02300171  RH  069%=      5-min Rain = 0
KLO1 140829Z 15006KT 23/17 A2992 RMK A01 T02300171  RH  069%=      5-min Rain = 0
KLO1 140830Z 15006KT 23/17 A2992 RMK A01 T02300171  RH  069%=      5-min Rain = 0
KLO1 140831Z 16006KT 23/17 A2992 RMK A01 T02290170  RH  069%=      5-min Rain = 0
KLO1 140832Z 15006KT 23/17 A2992 RMK A01 T02300170  RH  069%=      5-min Rain = 0
KLO1 140833Z 16005KT 23/17 A2992 RMK A01 T02300171  RH  069%=      5-min Rain = 0
KLO1 140834Z 16006KT 23/17 A2992 RMK A01 T02290170  RH  069%=      5-min Rain = 0
KLO1 140835Z 15005KT 23/17 A2992 RMK A01 T02290170  RH  069%=      5-min Rain = 0
KLO1 140836Z 16006KT 23/17 A2992 RMK A01 T02290170  RH  069%=      5-min Rain = 0
KLO1 140837Z 15006KT 23/17 A2992 RMK A01 T02290170  RH  070%=      5-min Rain = 0
KLO1 140838Z 15005KT 23/17 A2992 RMK A01 T02290170  RH  070%=      5-min Rain = 0
KLO1 140839Z 15005KT 23/17 A2992 RMK A01 T02290170  RH  069%=      5-min Rain = 0
KLO1 140840Z 15005KT 23/17 A2992 RMK A01 T02290170  RH  069%=      5-min Rain = 0
KLO1 140841Z 15006KT 23/17 A2992 RMK A01 T02290170  RH  070%=      5-min Rain = 0
KLO1 140842Z 15005KT 23/17 A2992 RMK A01 T02280170  RH  070%=      5-min Rain = 0
KLO1 140843Z 15005KT 23/17 A2992 RMK A01 T02280170  RH  070%=      5-min Rain = 0
KLO1 140844Z 15005KT 23/17 A2992 RMK A01 T02280170  RH  070%=      5-min Rain = 0
KLO1 140845Z 15006KT 23/17 A2992 RMK A01 T02280170  RH  070%=      5-min Rain = 0
KLO1 140846Z 15006KT 23/17 A2992 RMK A01 T02270170  RH  070%=      5-min Rain = 0
KLO1 140847Z 15005KT 23/17 A2992 RMK A01 T02280170  RH  070%=      5-min Rain = 0
KLO1 140848Z 15005KT 23/17 A2992 RMK A01 T02270170  RH  070%=      5-min Rain = 0
KLO1 140849Z 15006KT 23/17 A2992 RMK A01 T02270170  RH  070%=      5-min Rain = 0
KLO1 140850Z 15006KT 23/17 A2992 RMK A01 T02270170  RH  070%=      5-min Rain = 0
KLO1 140851Z 14005KT 23/17 A2992 RMK A01 T02270170  RH  070%=      5-min Rain = 0
KLO1 140852Z 15006KT 23/17 A2992 RMK A01 T02260169  RH  070%=      5-min Rain = 0
KLO1 140853Z 15006KT 23/17 A2992 RMK A01 T02250169  RH  070%=      5-min Rain = 0
KLO1 140854Z 14005KT 23/17 A2992 RMK A01 T02250169  RH  071%=      5-min Rain = 0
KLO1 140855Z 15006KT 23/17 A2992 RMK A01 T02250169  RH  071%=      5-min Rain = 0
KLO1 140856Z 14006KT 22/17 A2992 RMK A01 T02240169  RH  071%=      5-min Rain = 0
KLO1 140857Z 15006KT 22/17 A2992 RMK A01 T02240169  RH  071%=      5-min Rain = 0
KLO1 140858Z 15007KT 22/17 A2992 RMK A01 T02240169  RH  071%=      5-min Rain = 0
KLO1 140859Z 14006KT 22/17 A2992 RMK A01 T02240169  RH  071%=      5-min Rain = 0
KLO1 140900Z 14006KT 22/17 A2992 RMK A01 T02240169  RH  071%=      5-min Rain = 0
KLO1 140901Z 15006KT 22/17 A2992 RMK A01 T02240169  RH  071%=      5-min Rain = 0
KLO1 140902Z 14006KT 22/17 A2992 RMK A01 T02240169  RH  071%=      5-min Rain = 0
KLO1 140903Z 14006KT 22/17 A2992 RMK A01 T02240169  RH  071%=      5-min Rain = 0
KLO1 140904Z 14006KT 22/17 A2992 RMK A01 T02240169  RH  071%=      5-min Rain = 0
KLO1 140905Z 14006KT 22/17 A2992 RMK A01 T02230169  RH  071%=      5-min Rain = 0
KLO1 140906Z 14006KT 22/17 A2992 RMK A01 T02230169  RH  071%=      5-min Rain = 0
KLO1 140907Z 14005KT 22/17 A2992 RMK A01 T02230169  RH  071%=      5-min Rain = 0
KLO1 140908Z 14006KT 22/17 A2992 RMK A01 T02230168  RH  071%=      5-min Rain = 0
KLO1 140909Z 14006KT 22/17 A2992 RMK A01 T02230168  RH  071%=      5-min Rain = 0
KLO1 140910Z 14006KT 22/17 A2992 RMK A01 T02230169  RH  072%=      5-min Rain = 0
KLO1 140911Z 14007KT 22/17 A2992 RMK A01 T02220169  RH  072%=      5-min Rain = 0
KLO1 140912Z 13006KT 22/17 A2992 RMK A01 T02230169  RH  072%=      5-min Rain = 0
KLO1 140913Z 13007KT 22/17 A2992 RMK A01 T02220168  RH  071%=      5-min Rain = 0
KLO1 140914Z 13007KT 22/17 A2992 RMK A01 T02220168  RH  072%=      5-min Rain = 0
KLO1 140915Z 13007KT 22/17 A2992 RMK A01 T02210168  RH  072%=      5-min Rain = 0
KLO1 140916Z 13007KT 22/17 A2992 RMK A01 T02220168  RH  072%=      5-min Rain = 0
KLO1 140917Z 13007KT 22/17 A2992 RMK A01 T02210169  RH  072%=      5-min Rain = 0
KLO1 140918Z 13007KT 22/17 A2992 RMK A01 T02210169  RH  072%=      5-min Rain = 0
KLO1 140919Z 13007KT 22/17 A2992 RMK A01 T02210169  RH  072%=      5-min Rain = 0
KLO1 140920Z 13007KT 22/17 A2992 RMK A01 T02210169  RH  072%=      5-min Rain = 0
KLO1 140921Z 13007KT 22/17 A2993 RMK A01 T02200169  RH  073%=      5-min Rain = 0
KLO1 140922Z 13007KT 22/17 A2993 RMK A01 T02200169  RH  073%=      5-min Rain = 0
KLO1 140923Z 13007KT 22/17 A2993 RMK A01 T02200169  RH  073%=      5-min Rain = 0
KLO1 140924Z 13007KT 22/17 A2993 RMK A01 T02200169  RH  073%=      5-min Rain = 0
KLO1 140925Z 13007KT 22/17 A2993 RMK A01 T02200169  RH  073%=      5-min Rain = 0
KLO1 140926Z 13007KT 22/17 A2993 RMK A01 T02200169  RH  073%=      5-min Rain = 0
KLO1 140927Z 13006KT 22/17 A2993 RMK A01 T02200169  RH  073%=      5-min Rain = 0
KLO1 140928Z 13007KT 22/17 A2993 RMK A01 T02200169  RH  073%=      5-min Rain = 0
KLO1 140929Z 13006KT 22/17 A2993 RMK A01 T02200169  RH  073%=      5-min Rain = 0
KLO1 140930Z 13006KT 22/17 A2993 RMK A01 T02200169  RH  073%=      5-min Rain = 0
KLO1 140931Z 13007KT 22/17 A2993 RMK A01 T02190169  RH  073%=      5-min Rain = 0
KLO1 140932Z 12006KT 22/17 A2993 RMK A01 T02190169  RH  073%=      5-min Rain = 0
KLO1 140933Z 12006KT 22/17 A2993 RMK A01 T02190169  RH  073%=      5-min Rain = 0
KLO1 140934Z 11006KT 22/17 A2993 RMK A01 T02190168  RH  073%=      5-min Rain = 0
KLO1 140935Z 11005KT 22/17 A2993 RMK A01 T02190169  RH  073%=      5-min Rain = 0
KLO1 140936Z 12006KT 22/17 A2993 RMK A01 T02190169  RH  073%=      5-min Rain = 0
KLO1 140937Z 12006KT 22/17 A2993 RMK A01 T02190168  RH  073%=      5-min Rain = 0
KLO1 140938Z 12006KT 22/17 A2993 RMK A01 T02180168  RH  073%=      5-min Rain = 0
KLO1 140939Z 12006KT 22/17 A2993 RMK A01 T02180169  RH  073%=      5-min Rain = 0
KLO1 140940Z 11006KT 22/17 A2993 RMK A01 T02170168  RH  073%=      5-min Rain = 0
KLO1 140941Z 11006KT 22/17 A2993 RMK A01 T02170168  RH  073%=      5-min Rain = 0
KLO1 140942Z 11006KT 22/17 A2993 RMK A01 T02170168  RH  074%=      5-min Rain = 0
KLO1 140943Z 11006KT 22/17 A2993 RMK A01 T02160168  RH  074%=      5-min Rain = 0
KLO1 140944Z 11006KT 22/17 A2993 RMK A01 T02160168  RH  074%=      5-min Rain = 0
KLO1 140945Z 11006KT 22/17 A2993 RMK A01 T02160168  RH  074%=      5-min Rain = 0
KLO1 140946Z 11006KT 22/17 A2994 RMK A01 T02150168  RH  074%=      5-min Rain = 0
KLO1 140947Z 11006KT 22/17 A2994 RMK A01 T02150167  RH  074%=      5-min Rain = 0
KLO1 140948Z 11006KT 22/17 A2994 RMK A01 T02150168  RH  075%=      5-min Rain = 0
KLO1 140949Z 11006KT 21/17 A2994 RMK A01 T02140168  RH  075%=      5-min Rain = 0
KLO1 140950Z 11006KT 21/17 A2994 RMK A01 T02140168  RH  075%=      5-min Rain = 0
KLO1 140951Z 11006KT 21/17 A2994 RMK A01 T02140168  RH  075%=      5-min Rain = 0
KLO1 140952Z 11006KT 21/17 A2994 RMK A01 T02140168  RH  075%=      5-min Rain = 0
KLO1 140953Z 11005KT 21/17 A2994 RMK A01 T02130168  RH  075%=      5-min Rain = 0
KLO1 140954Z 12005KT 21/17 A2993 RMK A01 T02130167  RH  075%=      5-min Rain = 0
KLO1 140955Z 12005KT 21/17 A2993 RMK A01 T02120168  RH  076%=      5-min Rain = 0
KLO1 140956Z 12005KT 21/17 A2993 RMK A01 T02120168  RH  076%=      5-min Rain = 0
KLO1 140957Z 12005KT 21/17 A2993 RMK A01 T02120168  RH  076%=      5-min Rain = 0
KLO1 140958Z 13005KT 21/17 A2993 RMK A01 T02120168  RH  076%=      5-min Rain = 0
KLO1 140959Z 13006KT 21/17 A2993 RMK A01 T02120168  RH  076%=      5-min Rain = 0
KLO1 141000Z 13006KT 21/17 A2993 RMK A01 T02120168  RH  076%=      5-min Rain = 0
KLO1 141001Z 13006KT 21/17 A2993 RMK A01 T02110167  RH  076%=      5-min Rain = 0
KLO1 141002Z 13007KT 21/17 A2993 RMK A01 T02110168  RH  076%=      5-min Rain = 0
KLO1 141003Z 13007KT 21/17 A2993 RMK A01 T02110168  RH  076%=      5-min Rain = 0
KLO1 141004Z 13007KT 21/17 A2993 RMK A01 T02110168  RH  076%=      5-min Rain = 0
KLO1 141005Z 12006KT 21/17 A2993 RMK A01 T02110168  RH  076%=      5-min Rain = 0
KLO1 141006Z 13007KT 21/17 A2993 RMK A01 T02120168  RH  076%=      5-min Rain = 0
KLO1 141007Z 13007KT 21/17 A2993 RMK A01 T02120169  RH  077%=      5-min Rain = 0
KLO1 141008Z 13007KT 21/17 A2993 RMK A01 T02110169  RH  077%=      5-min Rain = 0
KLO1 141009Z 13007KT 21/17 A2994 RMK A01 T02120169  RH  077%=      5-min Rain = 0
KLO1 141010Z 13007KT 21/17 A2994 RMK A01 T02110169  RH  077%=      5-min Rain = 0
KLO1 141011Z 13007KT 21/17 A2994 RMK A01 T02110169  RH  077%=      5-min Rain = 0
KLO1 141012Z 13007KT 21/17 A2994 RMK A01 T02110169  RH  077%=      5-min Rain = 0
KLO1 141013Z 13007KT 21/17 A2994 RMK A01 T02110169  RH  077%=      5-min Rain = 0
KLO1 141014Z 13007KT 21/17 A2994 RMK A01 T02110170  RH  077%=      5-min Rain = 0
KLO1 141015Z 13007KT 21/17 A2994 RMK A01 T02110170  RH  077%=      5-min Rain = 0
KLO1 141016Z 13007KT 21/17 A2994 RMK A01 T02110170  RH  077%=      5-min Rain = 0
KLO1 141017Z 13007KT 21/17 A2994 RMK A01 T02110170  RH  077%=      5-min Rain = 0
KLO1 141018Z 13007KT 21/17 A2994 RMK A01 T02110170  RH  077%=      5-min Rain = 0
KLO1 141019Z 14006KT 21/17 A2994 RMK A01 T02110170  RH  077%=      5-min Rain = 0
KLO1 141020Z 14006KT 21/17 A2994 RMK A01 T02110170  RH  078%=      5-min Rain = 0
KLO1 141021Z 14006KT 21/17 A2994 RMK A01 T02100170  RH  078%=      5-min Rain = 0
KLO1 141022Z 14006KT 21/17 A2994 RMK A01 T02100170  RH  078%=      5-min Rain = 0
KLO1 141023Z 14007KT 21/17 A2994 RMK A01 T02100170  RH  078%=      5-min Rain = 0
KLO1 141024Z 14007KT 21/17 A2994 RMK A01 T02100170  RH  078%=      5-min Rain = 0
KLO1 141025Z 14006KT 21/17 A2994 RMK A01 T02100170  RH  078%=      5-min Rain = 0
KLO1 141026Z 14007KT 21/17 A2994 RMK A01 T02100170  RH  078%=      5-min Rain = 0
KLO1 141027Z 14007KT 21/17 A2994 RMK A01 T02100170  RH  078%=      5-min Rain = 0
KLO1 141028Z 14007KT 21/17 A2994 RMK A01 T02100170  RH  078%=      5-min Rain = 0
KLO1 141029Z 14006KT 21/17 A2994 RMK A01 T02100171  RH  078%=      5-min Rain = 0
KLO1 141030Z 14006KT 21/17 A2994 RMK A01 T02100171  RH  078%=      5-min Rain = 0
KLO1 141031Z 14006KT 21/17 A2994 RMK A01 T02100171  RH  078%=      5-min Rain = 0
KLO1 141032Z 14007KT 21/17 A2994 RMK A01 T02100171  RH  078%=      5-min Rain = 0
KLO1 141033Z 15006KT 21/17 A2994 RMK A01 T02100171  RH  078%=      5-min Rain = 0
KLO1 141034Z 14007KT 21/17 A2994 RMK A01 T02100171  RH  078%=      5-min Rain = 0
KLO1 141035Z 15006KT 21/17 A2994 RMK A01 T02100171  RH  078%=      5-min Rain = 0
KLO1 141036Z 15007KT 21/17 A2994 RMK A01 T02100171  RH  078%=      5-min Rain = 0
KLO1 141037Z 15006KT 21/17 A2994 RMK A01 T02100171  RH  078%=      5-min Rain = 0
KLO1 141038Z 14007KT 21/17 A2994 RMK A01 T02100171  RH  079%=      5-min Rain = 0
KLO1 141039Z 14007KT 21/17 A2994 RMK A01 T02100171  RH  079%=      5-min Rain = 0
KLO1 141040Z 14005KT 21/17 A2994 RMK A01 T02100171  RH  079%=      5-min Rain = 0
KLO1 141041Z 14005KT 21/17 A2994 RMK A01 T02100171  RH  079%=      5-min Rain = 0
KLO1 141042Z 14006KT 21/17 A2994 RMK A01 T02090171  RH  079%=      5-min Rain = 0
KLO1 141043Z 14005KT 21/17 A2994 RMK A01 T02090171  RH  079%=      5-min Rain = 0
KLO1 141044Z 14005KT 21/17 A2994 RMK A01 T02090171  RH  079%=      5-min Rain = 0
KLO1 141045Z 14006KT 21/17 A2994 RMK A01 T02090171  RH  079%=      5-min Rain = 0
KLO1 141046Z 14006KT 21/17 A2994 RMK A01 T02090171  RH  079%=      5-min Rain = 0
KLO1 141047Z 14006KT 21/17 A2995 RMK A01 T02090171  RH  079%=      5-min Rain = 0
KLO1 141048Z 14005KT 21/17 A2995 RMK A01 T02090171  RH  079%=      5-min Rain = 0
KLO1 141049Z 14005KT 21/17 A2995 RMK A01 T02090171  RH  079%=      5-min Rain = 0
KLO1 141050Z 14005KT 21/17 A2995 RMK A01 T02080171  RH  079%=      5-min Rain = 0
KLO1 141051Z 14005KT 21/17 A2995 RMK A01 T02080171  RH  079%=      5-min Rain = 0
KLO1 141052Z 14005KT 21/17 A2995 RMK A01 T02080170  RH  079%=      5-min Rain = 0
KLO1 141053Z 14005KT 21/17 A2995 RMK A01 T02070170  RH  079%=      5-min Rain = 0
KLO1 141054Z 14005KT 21/17 A2995 RMK A01 T02070170  RH  079%=      5-min Rain = 0
KLO1 141055Z 14005KT 21/17 A2995 RMK A01 T02070170  RH  079%=      5-min Rain = 0
KLO1 141056Z 14005KT 21/17 A2995 RMK A01 T02070170  RH  079%=      5-min Rain = 0
KLO1 141057Z 14004KT 21/17 A2995 RMK A01 T02070170  RH  079%=      5-min Rain = 0
KLO1 141058Z 14004KT 21/17 A2995 RMK A01 T02070170  RH  079%=      5-min Rain = 0
KLO1 141059Z 15004KT 21/17 A2995 RMK A01 T02060170  RH  079%=      5-min Rain = 0
KLO1 141100Z 14004KT 21/17 A2995 RMK A01 T02060170  RH  080%=      5-min Rain = 0
KLO1 141101Z 15004KT 21/17 A2995 RMK A01 T02050170  RH  080%=      5-min Rain = 0
KLO1 141102Z 15004KT 21/17 A2995 RMK A01 T02060170  RH  080%=      5-min Rain = 0
KLO1 141103Z 15004KT 21/17 A2995 RMK A01 T02050170  RH  080%=      5-min Rain = 0
KLO1 141104Z 16004KT 21/17 A2995 RMK A01 T02050170  RH  080%=      5-min Rain = 0
KLO1 141105Z 16004KT 21/17 A2995 RMK A01 T02050170  RH  080%=      5-min Rain = 0
KLO1 141106Z 17004KT 21/17 A2995 RMK A01 T02050170  RH  080%=      5-min Rain = 0
KLO1 141107Z 17005KT 21/17 A2995 RMK A01 T02050170  RH  080%=      5-min Rain = 0
KLO1 141108Z 18004KT 21/17 A2995 RMK A01 T02050170  RH  081%=      5-min Rain = 0
KLO1 141109Z 18004KT 21/17 A2995 RMK A01 T02050170  RH  080%=      5-min Rain = 0
KLO1 141110Z 18004KT 21/17 A2995 RMK A01 T02060171  RH  081%=      5-min Rain = 0
KLO1 141111Z 18005KT 21/17 A2995 RMK A01 T02060171  RH  080%=      5-min Rain = 0
KLO1 141112Z 18005KT 21/17 A2995 RMK A01 T02060171  RH  080%=      5-min Rain = 0
KLO1 141113Z 18005KT 21/17 A2995 RMK A01 T02060171  RH  080%=      5-min Rain = 0
KLO1 141114Z 18005KT 21/17 A2995 RMK A01 T02070172  RH  080%=      5-min Rain = 0
KLO1 141115Z 18005KT 21/17 A2995 RMK A01 T02070171  RH  080%=      5-min Rain = 0
KLO1 141116Z 18006KT 21/17 A2995 RMK A01 T02070172  RH  080%=      5-min Rain = 0
KLO1 141117Z 18006KT 21/17 A2995 RMK A01 T02070172  RH  080%=      5-min Rain = 0
KLO1 141118Z 18006KT 21/17 A2995 RMK A01 T02080173  RH  080%=      5-min Rain = 0
KLO1 141119Z 18006KT 21/17 A2995 RMK A01 T02080173  RH  080%=      5-min Rain = 0
KLO1 141120Z 18006KT 21/17 A2995 RMK A01 T02080174  RH  081%=      5-min Rain = 0
KLO1 141121Z 18006KT 21/17 A2995 RMK A01 T02090174  RH  081%=      5-min Rain = 0
KLO1 141122Z 17006KT 21/18 A2995 RMK A01 T02090175  RH  081%=      5-min Rain = 0
KLO1 141123Z 18006KT 21/18 A2995 RMK A01 T02100175  RH  081%=      5-min Rain = 0
KLO1 141124Z 17005KT 21/18 A2995 RMK A01 T02100175  RH  081%=      5-min Rain = 0
KLO1 141125Z 17006KT 21/18 A2995 RMK A01 T02100176  RH  081%=      5-min Rain = 0
KLO1 141126Z 17006KT 21/18 A2995 RMK A01 T02110176  RH  081%=      5-min Rain = 0
KLO1 141127Z 17006KT 21/18 A2995 RMK A01 T02110176  RH  081%=      5-min Rain = 0
KLO1 141128Z 17005KT 21/18 A2995 RMK A01 T02120177  RH  081%=      5-min Rain = 0
KLO1 141129Z 17005KT 21/18 A2995 RMK A01 T02120177  RH  081%=      5-min Rain = 0
KLO1 141130Z 17005KT 21/18 A2995 RMK A01 T02120177  RH  080%=      5-min Rain = 0
KLO1 141131Z 16006KT 21/18 A2995 RMK A01 T02120177  RH  080%=      5-min Rain = 0
KLO1 141132Z 17006KT 21/18 A2995 RMK A01 T02120178  RH  081%=      5-min Rain = 0
KLO1 141133Z 16007KT 21/18 A2995 RMK A01 T02130178  RH  081%=      5-min Rain = 0
KLO1 141134Z 16006KT 21/18 A2995 RMK A01 T02130179  RH  081%=      5-min Rain = 0
KLO1 141135Z 16006KT 21/18 A2995 RMK A01 T02140180  RH  081%=      5-min Rain = 0
KLO1 141136Z 16006KT 22/18 A2995 RMK A01 T02150180  RH  081%=      5-min Rain = 0
KLO1 141137Z 17006KT 22/18 A2995 RMK A01 T02150180  RH  081%=      5-min Rain = 0
KLO1 141138Z 16006KT 22/18 A2995 RMK A01 T02150180  RH  081%=      5-min Rain = 0
KLO1 141139Z 16006KT 22/18 A2995 RMK A01 T02150181  RH  081%=      5-min Rain = 0
KLO1 141140Z 16006KT 22/18 A2995 RMK A01 T02150180  RH  081%=      5-min Rain = 0
KLO1 141141Z 16009KT 22/18 A2995 RMK A01 T02150181  RH  081%=      5-min Rain = 0
KLO1 141142Z 16006KT 22/18 A2995 RMK A01 T02160182  RH  081%=      5-min Rain = 0
KLO1 141143Z 16009KT 22/18 A2995 RMK A01 T02160182  RH  081%=      5-min Rain = 0
KLO1 141144Z 16008KT 22/18 A2995 RMK A01 T02160182  RH  081%=      5-min Rain = 0
KLO1 141145Z 16007KT 22/18 A2995 RMK A01 T02160182  RH  081%=      5-min Rain = 0
KLO1 141146Z 16008KT 22/18 A2995 RMK A01 T02160182  RH  081%=      5-min Rain = 0
KLO1 141147Z 15007KT 22/18 A2995 RMK A01 T02160182  RH  081%=      5-min Rain = 0
KLO1 141148Z 15007KT 22/18 A2995 RMK A01 T02160182  RH  081%=      5-min Rain = 0
KLO1 141149Z 15007KT 22/18 A2995 RMK A01 T02160182  RH  081%=      5-min Rain = 0
KLO1 141150Z 15007KT 22/18 A2995 RMK A01 T02160182  RH  081%=      5-min Rain = 0
KLO1 141151Z 15006KT 22/18 A2995 RMK A01 T02160182  RH  081%=      5-min Rain = 0
KLO1 141152Z 15009KT 22/18 A2995 RMK A01 T02160182  RH  081%=      5-min Rain = 0
KLO1 141153Z 16008KT 22/18 A2995 RMK A01 T02160183  RH  081%=      5-min Rain = 0
KLO1 141154Z 16007KT 22/18 A2995 RMK A01 T02160183  RH  081%=      5-min Rain = 0
KLO1 141155Z 16009KT 22/18 A2995 RMK A01 T02160183  RH  081%=      5-min Rain = 0
KLO1 141156Z 16009KT 22/18 A2995 RMK A01 T02160183  RH  082%=      5-min Rain = 0
KLO1 141157Z 17008KT 22/18 A2995 RMK A01 T02160183  RH  082%=      5-min Rain = 0
KLO1 141158Z 16008KT 22/18 A2995 RMK A01 T02170183  RH  081%=      5-min Rain = 0
KLO1 141159Z 16008KT 22/18 A2995 RMK A01 T02160183  RH  081%=      5-min Rain = 0
KLO1 141200Z 17009KT 22/18 A2995 RMK A01 T02160184  RH  082%=      5-min Rain = 0
KLO1 141201Z 16010KT 22/18 A2995 RMK A01 T02170184  RH  082%=      5-min Rain = 0
KLO1 141202Z 16009KT 22/19 A2995 RMK A01 T02170185  RH  082%=      5-min Rain = 0
KLO1 141203Z 16009KT 22/18 A2995 RMK A01 T02170184  RH  082%=      5-min Rain = 0
KLO1 141204Z 16008KT 22/18 A2995 RMK A01 T02170184  RH  082%=      5-min Rain = 0
KLO1 141205Z 16010KT 22/18 A2995 RMK A01 T02170184  RH  082%=      5-min Rain = 0
KLO1 141206Z 16009KT 22/19 A2995 RMK A01 T02170185  RH  082%=      5-min Rain = 0
KLO1 141207Z 16009KT 22/19 A2995 RMK A01 T02180185  RH  082%=      5-min Rain = 0
KLO1 141208Z 17010KT 22/19 A2995 RMK A01 T02180185  RH  082%=      5-min Rain = 0
KLO1 141209Z 16009KT 22/19 A2995 RMK A01 T02180186  RH  082%=      5-min Rain = 0
KLO1 141210Z 17008KT 22/19 A2996 RMK A01 T02180186  RH  082%=      5-min Rain = 0
KLO1 141211Z 17008KT 22/19 A2996 RMK A01 T02180185  RH  082%=      5-min Rain = 0
KLO1 141212Z 17009KT 22/19 A2996 RMK A01 T02190186  RH  082%=      5-min Rain = 0
KLO1 141213Z 17009KT 22/19 A2996 RMK A01 T02190186  RH  082%=      5-min Rain = 0
KLO1 141214Z 17009KT 22/19 A2996 RMK A01 T02190187  RH  082%=      5-min Rain = 0
KLO1 141215Z 16009KT 22/19 A2996 RMK A01 T02190187  RH  082%=      5-min Rain = 0
KLO1 141216Z 17009KT 22/19 A2996 RMK A01 T02190187  RH  082%=      5-min Rain = 0
KLO1 141217Z 16009KT 22/19 A2996 RMK A01 T02190187  RH  082%=      5-min Rain = 0
KLO1 141218Z 17010KT 22/19 A2996 RMK A01 T02200187  RH  082%=      5-min Rain = 0
KLO1 141219Z 17009KT 22/19 A2996 RMK A01 T02200187  RH  082%=      5-min Rain = 0
KLO1 141220Z 17008KT 22/19 A2996 RMK A01 T02210188  RH  082%=      5-min Rain = 0
KLO1 141221Z 17010KT 22/19 A2996 RMK A01 T02210187  RH  081%=      5-min Rain = 0
KLO1 141222Z 17011KT 22/19 A2996 RMK A01 T02210188  RH  082%=      5-min Rain = 0
KLO1 141223Z 17009KT 22/19 A2996 RMK A01 T02210188  RH  081%=      5-min Rain = 0
KLO1 141224Z 17009KT 22/19 A2996 RMK A01 T02220188  RH  081%=      5-min Rain = 0
KLO1 141225Z 16008KT 22/19 A2996 RMK A01 T02210188  RH  081%=      5-min Rain = 0
KLO1 141226Z 17010KT 22/19 A2996 RMK A01 T02220188  RH  081%=      5-min Rain = 0
KLO1 141227Z 16010KT 22/19 A2996 RMK A01 T02220188  RH  081%=      5-min Rain = 0
KLO1 141228Z 16010KT 22/19 A2996 RMK A01 T02220188  RH  081%=      5-min Rain = 0
KLO1 141229Z 16011KT 22/19 A2996 RMK A01 T02230188  RH  081%=      5-min Rain = 0
KLO1 141230Z 17011KT 22/19 A2996 RMK A01 T02230188  RH  081%=      5-min Rain = 0
KLO1 141231Z 17010KT 22/19 A2996 RMK A01 T02230189  RH  081%=      5-min Rain = 0
KLO1 141232Z 17012KT 22/19 A2996 RMK A01 T02230188  RH  081%=      5-min Rain = 0
KLO1 141233Z 17011KT 22/19 A2996 RMK A01 T02240189  RH  081%=      5-min Rain = 0
KLO1 141234Z 17011KT 22/19 A2996 RMK A01 T02240189  RH  080%=      5-min Rain = 0
KLO1 141235Z 17011KT 22/19 A2996 RMK A01 T02240189  RH  080%=      5-min Rain = 0
KLO1 141236Z 17011KT 23/19 A2996 RMK A01 T02250189  RH  080%=      5-min Rain = 0
KLO1 141237Z 16010KT 23/19 A2996 RMK A01 T02250189  RH  080%=      5-min Rain = 0
KLO1 141238Z 16011KT 23/19 A2996 RMK A01 T02250189  RH  080%=      5-min Rain = 0
KLO1 141239Z 17011KT 23/19 A2996 RMK A01 T02260189  RH  080%=      5-min Rain = 0
KLO1 141240Z 17009KT 23/19 A2996 RMK A01 T02260189  RH  079%=      5-min Rain = 0
KLO1 141241Z 17010KT 23/19 A2996 RMK A01 T02270189  RH  079%=      5-min Rain = 0
KLO1 141242Z 17010KT 23/19 A2996 RMK A01 T02270189  RH  079%=      5-min Rain = 0
KLO1 141243Z 17009KT 23/19 A2996 RMK A01 T02270189  RH  079%=      5-min Rain = 0
KLO1 141244Z 17012KT 23/19 A2996 RMK A01 T02270189  RH  079%=      5-min Rain = 0
KLO1 141245Z 17010KT 23/19 A2996 RMK A01 T02260189  RH  079%=      5-min Rain = 0
KLO1 141246Z 17010KT 23/19 A2996 RMK A01 T02270189  RH  079%=      5-min Rain = 0
KLO1 141247Z 17011KT 23/19 A2996 RMK A01 T02270189  RH  079%=      5-min Rain = 0
KLO1 141248Z 16009KT 23/19 A2996 RMK A01 T02270189  RH  079%=      5-min Rain = 0
KLO1 141249Z 16010KT 23/19 A2996 RMK A01 T02280190  RH  079%=      5-min Rain = 0
KLO1 141250Z 16011KT 23/19 A2996 RMK A01 T02280190  RH  079%=      5-min Rain = 0
KLO1 141251Z 16012KT 23/19 A2996 RMK A01 T02280190  RH  079%=      5-min Rain = 0
KLO1 141252Z 16011KT 23/19 A2996 RMK A01 T02290189  RH  079%=      5-min Rain = 0
KLO1 141253Z 16010KT 23/19 A2996 RMK A01 T02290190  RH  079%=      5-min Rain = 0
KLO1 141254Z 16010KT 23/19 A2996 RMK A01 T02300190  RH  078%=      5-min Rain = 0
KLO1 141255Z 16010KT 23/19 A2996 RMK A01 T02290190  RH  078%=      5-min Rain = 0
KLO1 141256Z 15010KT 23/19 A2996 RMK A01 T02290190  RH  078%=      5-min Rain = 0
KLO1 141257Z 16012KT 23/19 A2996 RMK A01 T02290190  RH  078%=      5-min Rain = 0
KLO1 141258Z 16012KT 23/19 A2996 RMK A01 T02290190  RH  079%=      5-min Rain = 0
KLO1 141259Z 16010KT 23/19 A2996 RMK A01 T02280190  RH  079%=      5-min Rain = 0
KLO1 141300Z 15010KT 23/19 A2996 RMK A01 T02280190  RH  079%=      5-min Rain = 0
KLO1 141301Z 16012KT 23/19 A2996 RMK A01 T02280190  RH  079%=      5-min Rain = 0
KLO1 141302Z 16012KT 23/19 A2996 RMK A01 T02290190  RH  079%=      5-min Rain = 0
KLO1 141303Z 16011KT 23/19 A2996 RMK A01 T02280190  RH  079%=      5-min Rain = 0
KLO1 141304Z 16011KT 23/19 A2996 RMK A01 T02290190  RH  079%=      5-min Rain = 0
KLO1 141305Z 16011KT 23/19 A2996 RMK A01 T02290190  RH  079%=      5-min Rain = 0
KLO1 141306Z 16013KT 23/19 A2996 RMK A01 T02280190  RH  079%=      5-min Rain = 0
KLO1 141307Z 16011KT 23/19 A2996 RMK A01 T02290190  RH  079%=      5-min Rain = 0
KLO1 141308Z 17012KT 23/19 A2996 RMK A01 T02290190  RH  079%=      5-min Rain = 0
KLO1 141309Z 16009KT 23/19 A2996 RMK A01 T02290190  RH  079%=      5-min Rain = 0
KLO1 141310Z 17009KT 23/19 A2996 RMK A01 T02300190  RH  079%=      5-min Rain = 0
KLO1 141311Z 16011KT 23/19 A2996 RMK A01 T02300191  RH  078%=      5-min Rain = 0
KLO1 141312Z 16012KT 23/19 A2996 RMK A01 T02300191  RH  078%=      5-min Rain = 0
KLO1 141313Z 16012KT 23/19 A2996 RMK A01 T02300191  RH  078%=      5-min Rain = 0
KLO1 141314Z 16012KT 23/19 A2996 RMK A01 T02310191  RH  078%=      5-min Rain = 0
KLO1 141315Z 17010KT 23/19 A2997 RMK A01 T02300191  RH  078%=      5-min Rain = 0
KLO1 141316Z 17012G17KT 23/19 A2996 RMK A01 T02310191  RH  078%=      5-min Rain = 0
KLO1 141317Z 17012KT 23/19 A2996 RMK A01 T02310190  RH  078%=      5-min Rain = 0
KLO1 141318Z 17011KT 23/19 A2996 RMK A01 T02320191  RH  078%=      5-min Rain = 0
KLO1 141319Z 16013KT 23/19 A2996 RMK A01 T02330191  RH  077%=      5-min Rain = 0
KLO1 141320Z 17013KT 23/19 A2996 RMK A01 T02330191  RH  077%=      5-min Rain = 0
KLO1 141321Z 17014KT 23/19 A2996 RMK A01 T02340191  RH  077%=      5-min Rain = 0
KLO1 141322Z 17011KT 23/19 A2996 RMK A01 T02340191  RH  077%=      5-min Rain = 0
KLO1 141323Z 17013KT 24/19 A2996 RMK A01 T02350191  RH  076%=      5-min Rain = 0
KLO1 141324Z 17011KT 24/19 A2996 RMK A01 T02350191  RH  076%=      5-min Rain = 0
KLO1 141325Z 17014KT 24/19 A2996 RMK A01 T02360191  RH  076%=      5-min Rain = 0
KLO1 141326Z 18013KT 24/19 A2996 RMK A01 T02370191  RH  075%=      5-min Rain = 0
KLO1 141327Z 17013KT 24/19 A2996 RMK A01 T02370191  RH  075%=      5-min Rain = 0
KLO1 141328Z 18011KT 24/19 A2996 RMK A01 T02380191  RH  075%=      5-min Rain = 0
KLO1 141329Z 18012KT 24/19 A2996 RMK A01 T02390191  RH  075%=      5-min Rain = 0
KLO1 141330Z 17013KT 24/19 A2996 RMK A01 T02390191  RH  074%=      5-min Rain = 0
KLO1 141331Z 17011G16KT 24/19 A2996 RMK A01 T02400191  RH  074%=      5-min Rain = 0
KLO1 141332Z 17013G18KT 24/19 A2996 RMK A01 T02410191  RH  074%=      5-min Rain = 0
KLO1 141333Z 18012KT 24/19 A2997 RMK A01 T02420192  RH  073%=      5-min Rain = 0
KLO1 141334Z 17012KT 24/19 A2997 RMK A01 T02430191  RH  073%=      5-min Rain = 0
KLO1 141335Z 17012KT 24/19 A2997 RMK A01 T02430191  RH  073%=      5-min Rain = 0
KLO1 141336Z 18012KT 24/19 A2997 RMK A01 T02430191  RH  073%=      5-min Rain = 0
KLO1 141337Z 17013KT 24/19 A2997 RMK A01 T02440191  RH  072%=      5-min Rain = 0
KLO1 141338Z 17012G19KT 24/19 A2997 RMK A01 T02430191  RH  072%=      5-min Rain = 0
KLO1 141339Z 18014KT 24/19 A2997 RMK A01 T02440191  RH  072%=      5-min Rain = 0
KLO1 141340Z 18016G21KT 24/19 A2997 RMK A01 T02440190  RH  072%=      5-min Rain = 0
KLO1 141341Z 18016G21KT 24/19 A2997 RMK A01 T02440190  RH  072%=      5-min Rain = 0
KLO1 141342Z 17015KT 24/19 A2997 RMK A01 T02440191  RH  072%=      5-min Rain = 0
KLO1 141343Z 17017KT 24/19 A2997 RMK A01 T02440190  RH  072%=      5-min Rain = 0
KLO1 141344Z 18013KT 25/19 A2997 RMK A01 T02450191  RH  072%=      5-min Rain = 0
KLO1 141345Z 18014KT 25/19 A2997 RMK A01 T02450191  RH  072%=      5-min Rain = 0
KLO1 141346Z 17018KT 25/19 A2997 RMK A01 T02450190  RH  071%=      5-min Rain = 0
KLO1 141347Z 17018KT 25/19 A2997 RMK A01 T02460190  RH  071%=      5-min Rain = 0
KLO1 141348Z 18017KT 25/19 A2997 RMK A01 T02450190  RH  071%=      5-min Rain = 0
KLO1 141349Z 18019KT 25/19 A2997 RMK A01 T02450190  RH  071%=      5-min Rain = 0
KLO1 141350Z 18018KT 25/19 A2997 RMK A01 T02460190  RH  071%=      5-min Rain = 0
KLO1 141351Z 18017G22KT 25/19 A2997 RMK A01 T02460190  RH  071%=      5-min Rain = 0
KLO1 141352Z 18017G23KT 25/19 A2997 RMK A01 T02460190  RH  071%=      5-min Rain = 0
KLO1 141353Z 17017KT 25/19 A2997 RMK A01 T02480191  RH  070%=      5-min Rain = 0
KLO1 141354Z 17020KT 25/19 A2997 RMK A01 T02480190  RH  070%=      5-min Rain = 0
KLO1 141355Z 18019KT 25/19 A2997 RMK A01 T02480190  RH  070%=      5-min Rain = 0
KLO1 141356Z 18019G24KT 25/19 A2997 RMK A01 T02480190  RH  070%=      5-min Rain = 0
KLO1 141357Z 18018KT 25/19 A2997 RMK A01 T02490190  RH  070%=      5-min Rain = 0
KLO1 141358Z 17017KT 25/19 A2997 RMK A01 T02500190  RH  069%=      5-min Rain = 0
KLO1 141359Z 17015G20KT 25/19 A2997 RMK A01 T02500190  RH  069%=      5-min Rain = 0
KLO1 141400Z 17018G23KT 25/19 A2997 RMK A01 T02490190  RH  070%=      5-min Rain = 0
KLO1 141401Z 16017KT 25/19 A2997 RMK A01 T02500190  RH  069%=      5-min Rain = 0
KLO1 141402Z 16018G23KT 25/19 A2996 RMK A01 T02500190  RH  069%=      5-min Rain = 0
KLO1 141403Z 17019G25KT 25/19 A2997 RMK A01 T02500189  RH  069%=      5-min Rain = 0
KLO1 141404Z 18016KT 25/19 A2997 RMK A01 T02490190  RH  069%=      5-min Rain = 0
KLO1 141405Z 17016KT 25/19 A2997 RMK A01 T02490189  RH  069%=      5-min Rain = 0
KLO1 141406Z 18015KT 25/19 A2997 RMK A01 T02490190  RH  070%=      5-min Rain = 0
KLO1 141407Z 18017KT 25/19 A2997 RMK A01 T02490189  RH  069%=      5-min Rain = 0
KLO1 141408Z 18017KT 25/19 A2997 RMK A01 T02490189  RH  069%=      5-min Rain = 0
KLO1 141409Z 17015KT 25/19 A2997 RMK A01 T02480189  RH  070%=      5-min Rain = 0
KLO1 141410Z 17019KT 25/19 A2997 RMK A01 T02480189  RH  070%=      5-min Rain = 0
KLO1 141411Z 17016KT 25/19 A2997 RMK A01 T02480188  RH  069%=      5-min Rain = 0
KLO1 141412Z 18018KT 25/19 A2997 RMK A01 T02490189  RH  069%=      5-min Rain = 0
KLO1 141413Z 18016KT 25/19 A2997 RMK A01 T02500189  RH  069%=      5-min Rain = 0
KLO1 141414Z 17017KT 25/19 A2997 RMK A01 T02510190  RH  069%=      5-min Rain = 0
KLO1 141415Z 18016KT 25/19 A2997 RMK A01 T02520190  RH  069%=      5-min Rain = 0
KLO1 141416Z 18017KT 25/19 A2997 RMK A01 T02530190  RH  068%=      5-min Rain = 0
KLO1 141417Z 17017KT 25/19 A2997 RMK A01 T02540190  RH  068%=      5-min Rain = 0
KLO1 141418Z 17017KT 26/19 A2997 RMK A01 T02550189  RH  067%=      5-min Rain = 0
KLO1 141419Z 18018KT 26/19 A2998 RMK A01 T02550189  RH  067%=      5-min Rain = 0
KLO1 141420Z 18019KT 26/19 A2998 RMK A01 T02550189  RH  067%=      5-min Rain = 0
KLO1 141421Z 18014KT 26/19 A2998 RMK A01 T02550189  RH  067%=      5-min Rain = 0
KLO1 141422Z 18016KT 26/19 A2998 RMK A01 T02580190  RH  066%=      5-min Rain = 0
KLO1 141423Z 18016KT 26/19 A2998 RMK A01 T02580189  RH  066%=      5-min Rain = 0
KLO1 141424Z 18018KT 26/19 A2998 RMK A01 T02570188  RH  066%=      5-min Rain = 0
KLO1 141425Z 18017KT 26/19 A2998 RMK A01 T02570188  RH  066%=      5-min Rain = 0
KLO1 141426Z 18018KT 26/19 A2998 RMK A01 T02580188  RH  065%=      5-min Rain = 0
KLO1 141427Z 19017KT 26/19 A2998 RMK A01 T02580188  RH  065%=      5-min Rain = 0
KLO1 141428Z 19016KT 26/19 A2998 RMK A01 T02570188  RH  066%=      5-min Rain = 0
KLO1 141429Z 18016KT 26/19 A2998 RMK A01 T02560188  RH  066%=      5-min Rain = 0
KLO1 141430Z 18017KT 26/19 A2998 RMK A01 T02560188  RH  066%=      5-min Rain = 0
KLO1 141431Z 19017KT 26/19 A2998 RMK A01 T02560188  RH  066%=      5-min Rain = 0
KLO1 141432Z 19018KT 26/19 A2998 RMK A01 T02560187  RH  066%=      5-min Rain = 0
KLO1 141433Z 18017KT 25/19 A2998 RMK A01 T02540188  RH  066%=      5-min Rain = 0
KLO1 141434Z 18017KT 25/19 A2998 RMK A01 T02540188  RH  067%=      5-min Rain = 0
KLO1 141435Z 18014KT 26/19 A2998 RMK A01 T02550188  RH  067%=      5-min Rain = 0
KLO1 141436Z 17014KT 26/19 A2998 RMK A01 T02550188  RH  066%=      5-min Rain = 0
KLO1 141437Z 18013KT 26/19 A2998 RMK A01 T02560188  RH  066%=      5-min Rain = 0
KLO1 141438Z 18015G20KT 26/19 A2998 RMK A01 T02560189  RH  066%=      5-min Rain = 0
KLO1 141439Z 17017KT 26/19 A2998 RMK A01 T02560188  RH  066%=      5-min Rain = 0
KLO1 141440Z 17017KT 26/19 A2998 RMK A01 T02550187  RH  066%=      5-min Rain = 0
KLO1 141441Z 18018KT 25/19 A2998 RMK A01 T02540187  RH  066%=      5-min Rain = 0
KLO1 141442Z 18017KT 26/19 A2998 RMK A01 T02550188  RH  066%=      5-min Rain = 0
KLO1 141443Z 17014KT 25/19 A2999 RMK A01 T02540187  RH  066%=      5-min Rain = 0
KLO1 141444Z 17016KT 25/19 A2999 RMK A01 T02540187  RH  066%=      5-min Rain = 0
KLO1 141445Z 17015KT 26/19 A2999 RMK A01 T02550187  RH  066%=      5-min Rain = 0
KLO1 141446Z 17013KT 26/19 A2999 RMK A01 T02550187  RH  066%=      5-min Rain = 0
KLO1 141447Z 19015KT 26/19 A2999 RMK A01 T02560187  RH  066%=      5-min Rain = 0
KLO1 141448Z 18016KT 26/19 A2999 RMK A01 T02560186  RH  065%=      5-min Rain = 0
KLO1 141449Z 18015KT 26/19 A2999 RMK A01 T02550187  RH  066%=      5-min Rain = 0
KLO1 141450Z 17015KT 26/19 A2999 RMK A01 T02550187  RH  066%=      5-min Rain = 0
KLO1 141451Z 17017KT 26/19 A2999 RMK A01 T02560187  RH  066%=      5-min Rain = 0
KLO1 141452Z 17016KT 26/19 A2999 RMK A01 T02560187  RH  065%=      5-min Rain = 0
KLO1 141453Z 17015KT 26/19 A2999 RMK A01 T02570187  RH  065%=      5-min Rain = 0
KLO1 141454Z 18012G17KT 26/19 A2999 RMK A01 T02580187  RH  065%=      5-min Rain = 0
KLO1 141455Z 18016KT 26/19 A2999 RMK A01 T02590187  RH  065%=      5-min Rain = 0
KLO1 141456Z 19015KT 26/19 A2999 RMK A01 T02600187  RH  064%=      5-min Rain = 0
KLO1 141457Z 19015KT 26/19 A2999 RMK A01 T02600187  RH  064%=      5-min Rain = 0
KLO1 141458Z 18014KT 26/19 A2999 RMK A01 T02600187  RH  064%=      5-min Rain = 0
KLO1 141459Z 19017KT 26/19 A2999 RMK A01 T02620187  RH  064%=      5-min Rain = 0
KLO1 141500Z 18017KT 26/19 A2999 RMK A01 T02630187  RH  063%=      5-min Rain = 0
KLO1 141501Z 18018KT 26/19 A2999 RMK A01 T02630187  RH  063%=      5-min Rain = 0
KLO1 141502Z 18017KT 26/19 A2999 RMK A01 T02630186  RH  063%=      5-min Rain = 0
KLO1 141503Z 18017KT 26/19 A2999 RMK A01 T02640187  RH  062%=      5-min Rain = 0
KLO1 141504Z 18018KT 27/19 A2999 RMK A01 T02650187  RH  062%=      5-min Rain = 0
KLO1 141505Z 18016KT 27/19 A2999 RMK A01 T02660187  RH  062%=      5-min Rain = 0
KLO1 141506Z 18017G22KT 27/19 A2999 RMK A01 T02660187  RH  062%=      5-min Rain = 0
KLO1 141507Z 18017KT 27/19 A2999 RMK A01 T02660187  RH  062%=      5-min Rain = 0
KLO1 141508Z 18014KT 27/19 A2998 RMK A01 T02670188  RH  062%=      5-min Rain = 0
KLO1 141509Z 18014G19KT 27/19 A2998 RMK A01 T02700189  RH  061%=      5-min Rain = 0
KLO1 141510Z 18017KT 27/19 A2998 RMK A01 T02720188  RH  060%=      5-min Rain = 0
KLO1 141511Z 18018KT 27/19 A2998 RMK A01 T02720187  RH  060%=      5-min Rain = 0
KLO1 141512Z 18016KT 27/19 A2998 RMK A01 T02710187  RH  060%=      5-min Rain = 0
KLO1 141513Z 17016KT 27/19 A2998 RMK A01 T02730186  RH  059%=      5-min Rain = 0
KLO1 141514Z 17017KT 27/19 A2998 RMK A01 T02720186  RH  059%=      5-min Rain = 0
KLO1 141515Z 17015KT 27/19 A2998 RMK A01 T02700185  RH  059%=      5-min Rain = 0
KLO1 141516Z 18013KT 27/19 A2998 RMK A01 T02700186  RH  060%=      5-min Rain = 0
KLO1 141517Z 17015KT 27/19 A2998 RMK A01 T02700186  RH  060%=      5-min Rain = 0
KLO1 141518Z 17015KT 27/19 A2998 RMK A01 T02710186  RH  060%=      5-min Rain = 0
KLO1 141519Z 17015KT 27/19 A2998 RMK A01 T02710186  RH  060%=      5-min Rain = 0
KLO1 141520Z 19015KT 27/19 A2998 RMK A01 T02710186  RH  060%=      5-min Rain = 0
KLO1 141521Z 17017KT 27/19 A2998 RMK A01 T02730185  RH  059%=      5-min Rain = 0
KLO1 141522Z 18013KT 27/19 A2998 RMK A01 T02720185  RH  059%=      5-min Rain = 0
KLO1 141523Z 18013KT 27/19 A2998 RMK A01 T02710186  RH  059%=      5-min Rain = 0
KLO1 141524Z 19014KT 27/19 A2998 RMK A01 T02710186  RH  060%=      5-min Rain = 0
KLO1 141525Z 19015KT 27/19 A2998 RMK A01 T02730186  RH  059%=      5-min Rain = 0
KLO1 141526Z 19015KT 27/19 A2998 RMK A01 T02740185  RH  058%=      5-min Rain = 0
KLO1 141527Z 19015KT 27/19 A2998 RMK A01 T02730185  RH  059%=      5-min Rain = 0
KLO1 141528Z 18017KT 27/19 A2998 RMK A01 T02730185  RH  059%=      5-min Rain = 0
KLO1 141529Z 18016KT 27/18 A2999 RMK A01 T02710184  RH  059%=      5-min Rain = 0
KLO1 141530Z 19014G19KT 27/18 A2999 RMK A01 T02700184  RH  059%=      5-min Rain = 0
KLO1 141531Z 19017KT 27/18 A2998 RMK A01 T02700184  RH  059%=      5-min Rain = 0
KLO1 141532Z 19013KT 27/19 A2998 RMK A01 T02710185  RH  059%=      5-min Rain = 0
KLO1 141533Z 18013KT 27/19 A2998 RMK A01 T02710185  RH  059%=      5-min Rain = 0
KLO1 141534Z 19011G16KT 27/19 A2998 RMK A01 T02730186  RH  059%=      5-min Rain = 0
KLO1 141535Z 19017KT 27/19 A2998 RMK A01 T02730185  RH  058%=      5-min Rain = 0
KLO1 141536Z 19014KT 27/18 A2998 RMK A01 T02720184  RH  059%=      5-min Rain = 0
KLO1 141537Z 19016KT 27/18 A2998 RMK A01 T02710184  RH  059%=      5-min Rain = 0
KLO1 141538Z 18014KT 27/18 A2998 RMK A01 T02720184  RH  059%=      5-min Rain = 0
KLO1 141539Z 18012KT 27/18 A2998 RMK A01 T02720184  RH  059%=      5-min Rain = 0
KLO1 141540Z 18014KT 27/18 A2998 RMK A01 T02710184  RH  059%=      5-min Rain = 0
KLO1 141541Z 19015KT 27/19 A2998 RMK A01 T02730185  RH  059%=      5-min Rain = 0
KLO1 141542Z 19019KT 27/18 A2998 RMK A01 T02730183  RH  058%=      5-min Rain = 0
KLO1 141543Z 19016KT 27/18 A2998 RMK A01 T02730183  RH  058%=      5-min Rain = 0
KLO1 141544Z 18015KT 27/18 A2998 RMK A01 T02720183  RH  058%=      5-min Rain = 0
KLO1 141545Z 18015KT 27/18 A2998 RMK A01 T02710183  RH  058%=      5-min Rain = 0
KLO1 141546Z 18012KT 27/18 A2998 RMK A01 T02700182  RH  059%=      5-min Rain = 0
KLO1 141547Z 18011KT 27/18 A2998 RMK A01 T02710183  RH  059%=      5-min Rain = 0
KLO1 141548Z 19015KT 27/18 A2998 RMK A01 T02740184  RH  058%=      5-min Rain = 0
KLO1 141549Z 18014G19KT 28/18 A2998 RMK A01 T02760182  RH  057%=      5-min Rain = 0
KLO1 141550Z 19015KT 28/18 A2998 RMK A01 T02750182  RH  057%=      5-min Rain = 0
KLO1 141551Z 19015KT 27/18 A2998 RMK A01 T02740182  RH  057%=      5-min Rain = 0
KLO1 141552Z 20014G19KT 27/18 A2998 RMK A01 T02740181  RH  057%=      5-min Rain = 0
KLO1 141553Z 20013G18KT 27/18 A2998 RMK A01 T02740180  RH  056%=      5-min Rain = 0
KLO1 141554Z 20012G17KT 28/18 A2998 RMK A01 T02770182  RH  056%=      5-min Rain = 0
KLO1 141555Z 19014KT 28/18 A2998 RMK A01 T02790184  RH  056%=      5-min Rain = 0
KLO1 141556Z 19012KT 28/18 A2998 RMK A01 T02820184  RH  055%=      5-min Rain = 0
KLO1 141557Z 18010KT 28/18 A2998 RMK A01 T02820184  RH  055%=      5-min Rain = 0
KLO1 141558Z 19015G20KT 28/19 A2998 RMK A01 T02840185  RH  055%=      5-min Rain = 0
KLO1 141559Z 21016KT 28/18 A2998 RMK A01 T02840183  RH  054%=      5-min Rain = 0
KLO1 141600Z 19015KT 28/18 A2999 RMK A01 T02830181  RH  054%=      5-min Rain = 0
KLO1 141601Z 20016KT 28/18 A2999 RMK A01 T02830181  RH  054%=      5-min Rain = 0
KLO1 141602Z 19012KT 28/18 A2999 RMK A01 T02820181  RH  054%=      5-min Rain = 0
KLO1 141603Z 19014KT 28/18 A2999 RMK A01 T02830182  RH  054%=      5-min Rain = 0
KLO1 141604Z 18012KT 29/18 A2999 RMK A01 T02860183  RH  054%=      5-min Rain = 0
KLO1 141605Z 18012KT 29/18 A2999 RMK A01 T02860183  RH  054%=      5-min Rain = 0
KLO1 141606Z 18012G17KT 29/18 A2999 RMK A01 T02850184  RH  054%=      5-min Rain = 0
KLO1 141607Z 19017KT 29/18 A2999 RMK A01 T02870183  RH  053%=      5-min Rain = 0
KLO1 141608Z 20017KT 29/18 A2999 RMK A01 T02860183  RH  054%=      5-min Rain = 0
KLO1 141609Z 20014KT 28/18 A2999 RMK A01 T02840183  RH  054%=      5-min Rain = 0
KLO1 141610Z 19011KT 28/18 A2999 RMK A01 T02820182  RH  054%=      5-min Rain = 0
KLO1 141611Z 20009KT 28/18 A2999 RMK A01 T02820182  RH  055%=      5-min Rain = 0
KLO1 141612Z 20009KT 28/18 A2999 RMK A01 T02820182  RH  055%=      5-min Rain = 0
KLO1 141613Z 21010KT 28/18 A2999 RMK A01 T02830182  RH  054%=      5-min Rain = 0
KLO1 141614Z 21009KT 28/18 A2999 RMK A01 T02830182  RH  054%=      5-min Rain = 0
KLO1 141615Z 19015KT 28/18 A2999 RMK A01 T02840182  RH  054%=      5-min Rain = 0
KLO1 141616Z 20017KT 29/18 A2999 RMK A01 T02850180  RH  053%=      5-min Rain = 0
KLO1 141617Z 20012KT 28/18 A2999 RMK A01 T02840180  RH  053%=      5-min Rain = 0
KLO1 141618Z 19012KT 28/18 A2999 RMK A01 T02830180  RH  054%=      5-min Rain = 0
KLO1 141619Z 20015KT 28/18 A2999 RMK A01 T02820180  RH  054%=      5-min Rain = 0
KLO1 141620Z 20015KT 28/18 A2999 RMK A01 T02820180  RH  054%=      5-min Rain = 0
KLO1 141621Z 19014KT 28/18 A2999 RMK A01 T02830180  RH  054%=      5-min Rain = 0
KLO1 141622Z 19014KT 28/18 A2999 RMK A01 T02820179  RH  053%=      5-min Rain = 0
KLO1 141623Z 20010KT 28/18 A2999 RMK A01 T02820179  RH  054%=      5-min Rain = 0
KLO1 141624Z 20011KT 28/18 A2999 RMK A01 T02840180  RH  053%=      5-min Rain = 0
KLO1 141625Z 19012KT 28/18 A2999 RMK A01 T02840181  RH  054%=      5-min Rain = 0
KLO1 141626Z 20011KT 28/18 A2999 RMK A01 T02830180  RH  054%=      5-min Rain = 0
KLO1 141627Z 18012KT 28/18 A2999 RMK A01 T02820180  RH  054%=      5-min Rain = 0
KLO1 141628Z 20013KT 28/18 A2999 RMK A01 T02840180  RH  053%=      5-min Rain = 0
KLO1 141629Z 22014G20KT 28/18 A2999 RMK A01 T02840178  RH  053%=      5-min Rain = 0
KLO1 141630Z 21014KT 29/18 A2999 RMK A01 T02860178  RH  052%=      5-min Rain = 0
KLO1 141631Z 22014KT 29/18 A2999 RMK A01 T02880178  RH  051%=      5-min Rain = 0
KLO1 141632Z 21014KT 29/18 A2999 RMK A01 T02860177  RH  052%=      5-min Rain = 0
KLO1 141633Z 20013KT 28/18 A2999 RMK A01 T02840179  RH  053%=      5-min Rain = 0
KLO1 141634Z 19011KT 28/18 A2999 RMK A01 T02820179  RH  054%=      5-min Rain = 0
KLO1 141635Z 19014KT 28/18 A2999 RMK A01 T02830178  RH  053%=      5-min Rain = 0
KLO1 141636Z 20017KT 28/18 A2999 RMK A01 T02840176  RH  052%=      5-min Rain = 0
KLO1 141637Z 21015KT 29/18 A2999 RMK A01 T02850176  RH  052%=      5-min Rain = 0
KLO1 141638Z 21016KT 29/18 A2999 RMK A01 T02860175  RH  051%=      5-min Rain = 0
KLO1 141639Z 21012KT 29/18 A2999 RMK A01 T02850177  RH  052%=      5-min Rain = 0
KLO1 141640Z 21013G19KT 28/18 A2999 RMK A01 T02840177  RH  052%=      5-min Rain = 0
KLO1 141641Z 20014KT 29/18 A2999 RMK A01 T02850175  RH  051%=      5-min Rain = 0
KLO1 141642Z 21012G18KT 29/18 A2999 RMK A01 T02860175  RH  051%=      5-min Rain = 0
KLO1 141643Z 22015KT 29/18 A2999 RMK A01 T02850176  RH  052%=      5-min Rain = 0
KLO1 141644Z 22015KT 29/18 A2999 RMK A01 T02860176  RH  052%=      5-min Rain = 0
KLO1 141645Z 21013KT 29/18 A2999 RMK A01 T02850176  RH  052%=      5-min Rain = 0
KLO1 141646Z 20011KT 28/18 A2999 RMK A01 T02840176  RH  052%=      5-min Rain = 0
KLO1 141647Z 21011G17KT 29/18 A2999 RMK A01 T02850176  RH  052%=      5-min Rain = 0
KLO1 141648Z 20016KT 29/17 A2999 RMK A01 T02870174  RH  050%=      5-min Rain = 0
KLO1 141649Z 22015KT 29/17 A2999 RMK A01 T02870173  RH  050%=      5-min Rain = 0
KLO1 141650Z 22015KT 29/17 A2999 RMK A01 T02870172  RH  050%=      5-min Rain = 0
KLO1 141651Z 23015KT 29/17 A2999 RMK A01 T02870173  RH  050%=      5-min Rain = 0
KLO1 141652Z 22014KT 29/17 A2999 RMK A01 T02860174  RH  051%=      5-min Rain = 0
KLO1 141653Z 22013KT 29/17 A2999 RMK A01 T02870173  RH  050%=      5-min Rain = 0
KLO1 141654Z 21014KT 29/17 A2999 RMK A01 T02880172  RH  050%=      5-min Rain = 0
KLO1 141655Z 21015KT 29/17 A2999 RMK A01 T02880170  RH  049%=      5-min Rain = 0
KLO1 141656Z 21014KT 29/17 A2999 RMK A01 T02880170  RH  049%=      5-min Rain = 0
KLO1 141657Z 21012KT 29/17 A2999 RMK A01 T02890170  RH  049%=      5-min Rain = 0
KLO1 141658Z 20013KT 29/17 A2999 RMK A01 T02870173  RH  050%=      5-min Rain = 0
KLO1 141659Z 20013KT 29/18 A2999 RMK A01 T02880175  RH  050%=      5-min Rain = 0
KLO1 141700Z 20013G18KT 29/18 A2999 RMK A01 T02880175  RH  050%=      5-min Rain = 0
KLO1 141701Z 21016KT 29/17 A2999 RMK A01 T02910174  RH  049%=      5-min Rain = 0
KLO1 141702Z 22017KT 30/17 A2999 RMK A01 T02950173  RH  048%=      5-min Rain = 0
KLO1 141703Z 21012KT 29/17 A2999 RMK A01 T02940170  RH  047%=      5-min Rain = 0
KLO1 141704Z 22012KT 29/17 A2999 RMK A01 T02910171  RH  048%=      5-min Rain = 0
KLO1 141705Z 22013KT 29/17 A2998 RMK A01 T02910171  RH  048%=      5-min Rain = 0
KLO1 141706Z 21011KT 29/17 A2998 RMK A01 T02940170  RH  047%=      5-min Rain = 0
KLO1 141707Z 21012KT 29/17 A2998 RMK A01 T02940170  RH  047%=      5-min Rain = 0
KLO1 141708Z 21015KT 29/17 A2998 RMK A01 T02940172  RH  048%=      5-min Rain = 0
KLO1 141709Z 21013KT 30/17 A2998 RMK A01 T02950172  RH  048%=      5-min Rain = 0
KLO1 141710Z 21011G16KT 29/17 A2998 RMK A01 T02940172  RH  048%=      5-min Rain = 0
KLO1 141711Z 20011KT 29/17 A2998 RMK A01 T02940173  RH  048%=      5-min Rain = 0
KLO1 141712Z 21008KT 29/17 A2998 RMK A01 T02940172  RH  048%=      5-min Rain = 0
KLO1 141713Z 20011KT 29/17 A2998 RMK A01 T02920168  RH  047%=      5-min Rain = 0
KLO1 141714Z 21010KT 29/17 A2998 RMK A01 T02920165  RH  046%=      5-min Rain = 0
KLO1 141715Z 21008KT 29/17 A2998 RMK A01 T02940166  RH  046%=      5-min Rain = 0
KLO1 141716Z 23010KT 30/16 A2998 RMK A01 T02970163  RH  044%=      5-min Rain = 0
KLO1 141717Z 23009KT 30/16 A2997 RMK A01 T02980163  RH  044%=      5-min Rain = 0
KLO1 141718Z 21011KT 30/16 A2997 RMK A01 T02970161  RH  044%=      5-min Rain = 0
KLO1 141719Z 20010KT 30/16 A2997 RMK A01 T03000164  RH  044%=      5-min Rain = 0
KLO1 141720Z 20010KT 31/17 A2997 RMK A01 T03050167  RH  043%=      5-min Rain = 0
KLO1 141721Z 20011KT 30/17 A2997 RMK A01 T03040165  RH  043%=      5-min Rain = 0
KLO1 141722Z 21011KT 30/17 A2997 RMK A01 T03000165  RH  044%=      5-min Rain = 0
KLO1 141723Z 21010KT 30/17 A2997 RMK A01 T03000167  RH  045%=      5-min Rain = 0
KLO1 141724Z 21008KT 30/17 A2997 RMK A01 T03000167  RH  045%=      5-min Rain = 0
KLO1 141725Z 21007KT 30/17 A2997 RMK A01 T03000167  RH  045%=      5-min Rain = 0
KLO1 141726Z 18008KT 30/17 A2997 RMK A01 T03000167  RH  045%=      5-min Rain = 0
KLO1 141727Z 17007KT 30/17 A2997 RMK A01 T02990165  RH  044%=      5-min Rain = 0
KLO1 141728Z 17006KT 30/16 A2997 RMK A01 T03000164  RH  044%=      5-min Rain = 0
KLO1 141729Z 16006KT 30/16 A2997 RMK A01 T03000163  RH  044%=      5-min Rain = 0
KLO1 141730Z 25008KT 31/16 A2997 RMK A01 T03060158  RH  041%=      5-min Rain = 0
KLO1 141731Z 23007KT 31/16 A2997 RMK A01 T03090156  RH  040%=      5-min Rain = 0
KLO1 141732Z 20007KT 31/16 A2997 RMK A01 T03100155  RH  039%=      5-min Rain = 0
KLO1 141733Z 20010KT 31/16 A2997 RMK A01 T03100160  RH  041%=      5-min Rain = 0
KLO1 141734Z 19011KT 31/16 A2997 RMK A01 T03090161  RH  041%=      5-min Rain = 0
KLO1 141735Z 20008KT 31/16 A2997 RMK A01 T03080160  RH  041%=      5-min Rain = 0
KLO1 141736Z 20009G17KT 31/16 A2997 RMK A01 T03070160  RH  041%=      5-min Rain = 0
KLO1 141737Z 19013KT 31/16 A2997 RMK A01 T03090161  RH  041%=      5-min Rain = 0
KLO1 141738Z 19013KT 31/16 A2997 RMK A01 T03070161  RH  041%=      5-min Rain = 0
KLO1 141739Z 19009KT 30/16 A2997 RMK A01 T03040160  RH  042%=      5-min Rain = 0
KLO1 141740Z 18009KT 30/16 A2997 RMK A01 T03030160  RH  042%=      5-min Rain = 0
KLO1 141741Z 17008KT 30/16 A2997 RMK A01 T03020162  RH  043%=      5-min Rain = 0
KLO1 141742Z 18012KT 30/16 A2997 RMK A01 T03010161  RH  043%=      5-min Rain = 0
KLO1 141743Z 18012KT 30/16 A2997 RMK A01 T03020156  RH  041%=      5-min Rain = 0
KLO1 141744Z 19008KT 30/16 A2997 RMK A01 T03020156  RH  041%=      5-min Rain = 0
KLO1 141745Z 20011KT 30/16 A2997 RMK A01 T03010157  RH  042%=      5-min Rain = 0
KLO1 141746Z 20012KT 30/15 A2997 RMK A01 T03020153  RH  041%=      5-min Rain = 0
KLO1 141747Z 22016KT 30/15 A2997 RMK A01 T03020153  RH  041%=      5-min Rain = 0
KLO1 141748Z 22011G16KT 30/15 A2997 RMK A01 T03030153  RH  040%=      5-min Rain = 0
KLO1 141749Z 21011G16KT 30/16 A2997 RMK A01 T03000155  RH  041%=      5-min Rain = 0
KLO1 141750Z 20014KT 30/16 A2997 RMK A01 T03000158  RH  042%=      5-min Rain = 0
KLO1 141751Z 19012KT 30/16 A2997 RMK A01 T03020157  RH  042%=      5-min Rain = 0
KLO1 141752Z 21010KT 30/16 A2997 RMK A01 T03000159  RH  042%=      5-min Rain = 0
KLO1 141753Z 22013KT 30/16 A2997 RMK A01 T03030160  RH  042%=      5-min Rain = 0
KLO1 141754Z 23016KT 31/16 A2997 RMK A01 T03060155  RH  040%=      5-min Rain = 0
KLO1 141755Z 23012KT 31/15 A2997 RMK A01 T03060153  RH  039%=      5-min Rain = 0
KLO1 141756Z 22008KT 31/15 A2997 RMK A01 T03070153  RH  039%=      5-min Rain = 0
KLO1 141757Z 20008KT 31/15 A2997 RMK A01 T03080154  RH  039%=      5-min Rain = 0
KLO1 141758Z 21007G12KT 31/16 A2997 RMK A01 T03050155  RH  040%=      5-min Rain = 0
KLO1 141759Z 21010KT 31/16 A2997 RMK A01 T03050155  RH  040%=      5-min Rain = 0
KLO1 141800Z 20012KT 31/16 A2997 RMK A01 T03050155  RH  040%=      5-min Rain = 0
KLO1 141801Z 20013KT 31/15 A2997 RMK A01 T03060154  RH  040%=      5-min Rain = 0
KLO1 141802Z 21009KT 31/16 A2997 RMK A01 T03060155  RH  040%=      5-min Rain = 0
KLO1 141803Z 20008KT 31/16 A2997 RMK A01 T03050155  RH  040%=      5-min Rain = 0
KLO1 141804Z 23007KT 30/16 A2997 RMK A01 T03020156  RH  041%=      5-min Rain = 0
KLO1 141805Z 23013KT 31/16 A2997 RMK A01 T03050156  RH  041%=      5-min Rain = 0
KLO1 141806Z 23013KT 31/15 A2996 RMK A01 T03090153  RH  039%=      5-min Rain = 0
KLO1 141807Z 22012KT 31/16 A2996 RMK A01 T03080155  RH  039%=      5-min Rain = 0
KLO1 141808Z 21013KT 31/15 A2996 RMK A01 T03090151  RH  038%=      5-min Rain = 0
KLO1 141809Z 20010KT 31/15 A2996 RMK A01 T03110150  RH  038%=      5-min Rain = 0
KLO1 141810Z 23011KT 31/15 A2996 RMK A01 T03130152  RH  038%=      5-min Rain = 0
KLO1 141811Z 22009KT 31/15 A2996 RMK A01 T03120152  RH  038%=      5-min Rain = 0
KLO1 141812Z 21006KT 31/15 A2996 RMK A01 T03080151  RH  038%=      5-min Rain = 0
KLO1 141813Z 21003KT 31/15 A2996 RMK A01 T03060151  RH  039%=      5-min Rain = 0
KLO1 141814Z 19005KT 31/15 A2996 RMK A01 T03050150  RH  039%=      5-min Rain = 0
KLO1 141815Z 18009KT 31/15 A2996 RMK A01 T03070153  RH  039%=      5-min Rain = 0
KLO1 141816Z 20010KT 31/15 A2996 RMK A01 T03080152  RH  039%=      5-min Rain = 0
KLO1 141817Z 22007KT 31/15 A2996 RMK A01 T03080147  RH  038%=      5-min Rain = 0
KLO1 141818Z 23009KT 31/14 A2996 RMK A01 T03120142  RH  035%=      5-min Rain = 0
KLO1 141819Z 25007G12KT 31/14 A2996 RMK A01 T03140142  RH  035%=      5-min Rain = 0
KLO1 141820Z 27010KT 32/14 A2996 RMK A01 T03150142  RH  035%=      5-min Rain = 0
KLO1 141821Z 25009KT 32/14 A2996 RMK A01 T03160140  RH  034%=      5-min Rain = 0
KLO1 141822Z 24008KT 31/14 A2996 RMK A01 T03130139  RH  035%=      5-min Rain = 0
KLO1 141823Z 25009KT 31/14 A2996 RMK A01 T03110143  RH  036%=      5-min Rain = 0
KLO1 141824Z 24007KT 31/14 A2996 RMK A01 T03110144  RH  036%=      5-min Rain = 0
KLO1 141825Z 25007KT 31/15 A2996 RMK A01 T03110145  RH  037%=      5-min Rain = 0
KLO1 141826Z 26009KT 31/15 A2996 RMK A01 T03110145  RH  036%=      5-min Rain = 0
KLO1 141827Z 27006KT 31/15 A2996 RMK A01 T03110145  RH  036%=      5-min Rain = 0
KLO1 141828Z 28006KT 31/15 A2996 RMK A01 T03110145  RH  037%=      5-min Rain = 0
KLO1 141829Z 28006KT 31/15 A2996 RMK A01 T03090145  RH  037%=      5-min Rain = 0
KLO1 141830Z 30007KT 31/15 A2996 RMK A01 T03090145  RH  037%=      5-min Rain = 0
KLO1 141831Z 29005KT 31/15 A2996 RMK A01 T03090145  RH  037%=      5-min Rain = 0
KLO1 141832Z 29004KT 31/15 A2996 RMK A01 T03090145  RH  037%=      5-min Rain = 0
KLO1 141833Z 26004KT 31/14 A2996 RMK A01 T03080144  RH  037%=      5-min Rain = 0
KLO1 141834Z 22009KT 31/14 A2996 RMK A01 T03080140  RH  036%=      5-min Rain = 0
KLO1 141835Z 24006KT 31/13 A2996 RMK A01 T03090133  RH  034%=      5-min Rain = 0
KLO1 141836Z 23008KT 31/13 A2996 RMK A01 T03090132  RH  034%=      5-min Rain = 0
KLO1 141837Z 22007KT 31/13 A2996 RMK A01 T03110133  RH  034%=      5-min Rain = 0
KLO1 141838Z 24006KT 31/13 A2996 RMK A01 T03130132  RH  033%=      5-min Rain = 0
KLO1 141839Z 24005KT 31/13 A2996 RMK A01 T03120133  RH  033%=      5-min Rain = 0
KLO1 141840Z 26007KT 31/14 A2996 RMK A01 T03120136  RH  034%=      5-min Rain = 0
KLO1 141841Z 27011KT 31/14 A2996 RMK A01 T03110139  RH  035%=      5-min Rain = 0
KLO1 141842Z 28010KT 31/14 A2996 RMK A01 T03090140  RH  036%=      5-min Rain = 0
KLO1 141843Z 29009KT 31/14 A2996 RMK A01 T03080136  RH  035%=      5-min Rain = 0
KLO1 141844Z 28007KT 31/14 A2996 RMK A01 T03090138  RH  035%=      5-min Rain = 0
KLO1 141845Z 28009KT 31/14 A2996 RMK A01 T03080140  RH  036%=      5-min Rain = 0
KLO1 141846Z 26008KT 31/14 A2996 RMK A01 T03080139  RH  036%=      5-min Rain = 0
KLO1 141847Z 25004KT 31/14 A2996 RMK A01 T03080138  RH  035%=      5-min Rain = 0
KLO1 141848Z 28004KT 31/14 A2996 RMK A01 T03090138  RH  035%=      5-min Rain = 0
KLO1 141849Z 28006G11KT 31/14 A2996 RMK A01 T03070139  RH  036%=      5-min Rain = 0
KLO1 141850Z 28008KT 31/14 A2996 RMK A01 T03080139  RH  036%=      5-min Rain = 0
KLO1 141851Z 27004KT 31/14 A2996 RMK A01 T03090138  RH  035%=      5-min Rain = 0
KLO1 141852Z 30004KT 31/14 A2996 RMK A01 T03090139  RH  036%=      5-min Rain = 0
KLO1 141853Z 31005KT 31/14 A2996 RMK A01 T03090140  RH  036%=      5-min Rain = 0
KLO1 141854Z 29009KT 31/14 A2996 RMK A01 T03110140  RH  035%=      5-min Rain = 0
KLO1 141855Z 27006KT 31/14 A2996 RMK A01 T03130138  RH  034%=      5-min Rain = 0
KLO1 141856Z 27006KT 31/14 A2996 RMK A01 T03130139  RH  035%=      5-min Rain = 0
KLO1 141857Z 26007KT 31/14 A2996 RMK A01 T03130139  RH  035%=      5-min Rain = 0
KLO1 141858Z 25009KT 32/13 A2996 RMK A01 T03150134  RH  033%=      5-min Rain = 0
KLO1 141859Z 25009KT 32/13 A2996 RMK A01 T03160132  RH  033%=      5-min Rain = 0
KLO1 141900Z 24011KT 32/13 A2995 RMK A01 T03150134  RH  033%=      5-min Rain = 0
KLO1 141901Z 25008KT 32/13 A2996 RMK A01 T03160133  RH  033%=      5-min Rain = 0
KLO1 141902Z 25006KT 31/13 A2996 RMK A01 T03140132  RH  033%=      5-min Rain = 0
KLO1 141903Z 23008KT 32/14 A2996 RMK A01 T03150135  RH  034%=      5-min Rain = 0
KLO1 141904Z 25009KT 32/14 A2996 RMK A01 T03170135  RH  033%=      5-min Rain = 0
KLO1 141905Z 26009KT 32/14 A2996 RMK A01 T03170136  RH  033%=      5-min Rain = 0
KLO1 141906Z 25004KT 32/13 A2996 RMK A01 T03150134  RH  033%=      5-min Rain = 0
KLO1 141907Z 28004G10KT 31/14 A2996 RMK A01 T03130135  RH  034%=      5-min Rain = 0
KLO1 141908Z 28010KT 31/14 A2995 RMK A01 T03130137  RH  034%=      5-min Rain = 0
KLO1 141909Z 26010KT 31/14 A2995 RMK A01 T03130137  RH  034%=      5-min Rain = 0
KLO1 141910Z 24004KT 31/14 A2995 RMK A01 T03120136  RH  034%=      5-min Rain = 0
KLO1 141911Z 24002KT 31/14 A2995 RMK A01 T03110136  RH  034%=      5-min Rain = 0
KLO1 141912Z 30001KT 31/14 A2995 RMK A01 T03110136  RH  035%=      5-min Rain = 0
KLO1 141913Z 31002KT 31/14 A2995 RMK A01 T03110136  RH  034%=      5-min Rain = 0
KLO1 141914Z 32003KT 31/14 A2995 RMK A01 T03120136  RH  034%=      5-min Rain = 0
KLO1 141915Z 32004KT 31/14 A2995 RMK A01 T03130138  RH  035%=      5-min Rain = 0
KLO1 141916Z 32004KT 31/14 A2995 RMK A01 T03120138  RH  035%=      5-min Rain = 0
KLO1 141917Z 33002KT 31/14 A2995 RMK A01 T03110139  RH  035%=      5-min Rain = 0
KLO1 141918Z 33003KT 31/14 A2995 RMK A01 T03120138  RH  035%=      5-min Rain = 0
KLO1 141919Z 32003KT 31/14 A2995 RMK A01 T03130138  RH  035%=      5-min Rain = 0
KLO1 141920Z 30001KT 31/14 A2995 RMK A01 T03140137  RH  034%=      5-min Rain = 0
KLO1 141921Z 30003KT 32/14 A2995 RMK A01 T03150137  RH  034%=      5-min Rain = 0
KLO1 141922Z 30004KT 32/14 A2995 RMK A01 T03160136  RH  033%=      5-min Rain = 0
KLO1 141923Z 32001KT 31/14 A2995 RMK A01 T03140136  RH  034%=      5-min Rain = 0
KLO1 141924Z 00003KT 31/14 A2995 RMK A01 T03130137  RH  034%=      5-min Rain = 0
KLO1 141925Z 35004KT 31/14 A2995 RMK A01 T03140136  RH  034%=      5-min Rain = 0
KLO1 141926Z 33003KT 32/14 A2995 RMK A01 T03150136  RH  034%=      5-min Rain = 0
KLO1 141927Z 30007KT 31/14 A2995 RMK A01 T03140138  RH  034%=      5-min Rain = 0
KLO1 141928Z 31009KT 32/14 A2995 RMK A01 T03150138  RH  034%=      5-min Rain = 0
KLO1 141929Z 31006KT 32/14 A2995 RMK A01 T03150138  RH  034%=      5-min Rain = 0
KLO1 141930Z 33005KT 32/14 A2995 RMK A01 T03150138  RH  034%=      5-min Rain = 0
KLO1 141931Z 29008KT 31/14 A2995 RMK A01 T03140138  RH  034%=      5-min Rain = 0
KLO1 141932Z 30010KT 31/14 A2994 RMK A01 T03140139  RH  034%=      5-min Rain = 0
KLO1 141933Z 30009KT 31/14 A2994 RMK A01 T03140140  RH  035%=      5-min Rain = 0
KLO1 141934Z 28007KT 32/14 A2994 RMK A01 T03160140  RH  034%=      5-min Rain = 0
KLO1 141935Z 27008KT 32/14 A2994 RMK A01 T03160140  RH  034%=      5-min Rain = 0
KLO1 141936Z 30006KT 31/14 A2994 RMK A01 T03140138  RH  034%=      5-min Rain = 0
KLO1 141937Z 30004KT 31/14 A2994 RMK A01 T03120139  RH  035%=      5-min Rain = 0
KLO1 141938Z 25005KT 31/14 A2994 RMK A01 T03130139  RH  035%=      5-min Rain = 0
KLO1 141939Z 24005KT 31/14 A2994 RMK A01 T03130138  RH  034%=      5-min Rain = 0
KLO1 141940Z 25007KT 31/14 A2994 RMK A01 T03120138  RH  035%=      5-min Rain = 0
KLO1 141941Z 24002KT 31/14 A2994 RMK A01 T03110137  RH  035%=      5-min Rain = 0
KLO1 141942Z 34001KT 31/14 A2994 RMK A01 T03100137  RH  035%=      5-min Rain = 0
KLO1 141943Z 00003KT 31/14 A2994 RMK A01 T03100137  RH  035%=      5-min Rain = 0
KLO1 141944Z 04002KT 31/14 A2994 RMK A01 T03110137  RH  035%=      5-min Rain = 0
KLO1 141945Z 01003KT 31/14 A2994 RMK A01 T03120138  RH  035%=      5-min Rain = 0
KLO1 141946Z 34002KT 31/14 A2994 RMK A01 T03110138  RH  035%=      5-min Rain = 0
KLO1 141947Z 31002KT 31/14 A2994 RMK A01 T03110138  RH  035%=      5-min Rain = 0
KLO1 141948Z 23003KT 31/14 A2994 RMK A01 T03120139  RH  035%=      5-min Rain = 0
KLO1 141949Z 22001KT 31/14 A2994 RMK A01 T03140138  RH  034%=      5-min Rain = 0
KLO1 141950Z 19003KT 32/14 A2994 RMK A01 T03150138  RH  034%=      5-min Rain = 0
KLO1 141951Z 22003KT 32/14 A2993 RMK A01 T03170139  RH  034%=      5-min Rain = 0
KLO1 141952Z 22004KT 32/14 A2993 RMK A01 T03180139  RH  034%=      5-min Rain = 0
KLO1 141953Z 21003KT 32/14 A2993 RMK A01 T03180138  RH  034%=      5-min Rain = 0
KLO1 141954Z 18006KT 32/14 A2993 RMK A01 T03170138  RH  034%=      5-min Rain = 0
KLO1 141955Z 18008KT 32/14 A2993 RMK A01 T03170140  RH  034%=      5-min Rain = 0
KLO1 141956Z 18003KT 32/14 A2993 RMK A01 T03150138  RH  034%=      5-min Rain = 0
KLO1 141957Z 16002KT 31/14 A2993 RMK A01 T03130137  RH  034%=      5-min Rain = 0
KLO1 141958Z 12002KT 31/14 A2993 RMK A01 T03120138  RH  035%=      5-min Rain = 0
KLO1 141959Z 13001KT 31/14 A2993 RMK A01 T03130138  RH  035%=      5-min Rain = 0
KLO1 142000Z 24002KT 31/14 A2993 RMK A01 T03130138  RH  034%=      5-min Rain = 0
KLO1 142001Z 25006KT 31/14 A2993 RMK A01 T03140139  RH  034%=      5-min Rain = 0
KLO1 142002Z 24001KT 31/14 A2993 RMK A01 T03130139  RH  035%=      5-min Rain = 0
KLO1 142003Z 20000KT 31/14 A2993 RMK A01 T03120139  RH  035%=      5-min Rain = 0
KLO1 142004Z 25003KT 31/14 A2993 RMK A01 T03120139  RH  035%=      5-min Rain = 0
KLO1 142005Z 25005KT 31/14 A2993 RMK A01 T03120137  RH  034%=      5-min Rain = 0
KLO1 142006Z 24005KT 31/14 A2993 RMK A01 T03120138  RH  035%=      5-min Rain = 0
KLO1 142007Z 27006KT 31/14 A2993 RMK A01 T03120138  RH  035%=      5-min Rain = 0
KLO1 142008Z 28006KT 31/14 A2993 RMK A01 T03120137  RH  035%=      5-min Rain = 0
KLO1 142009Z 28005KT 31/14 A2993 RMK A01 T03120138  RH  035%=      5-min Rain = 0
KLO1 142010Z 27005KT 31/14 A2993 RMK A01 T03130138  RH  034%=      5-min Rain = 0
KLO1 142011Z 25005KT 31/14 A2993 RMK A01 T03140138  RH  034%=      5-min Rain = 0
KLO1 142012Z 22005KT 31/14 A2993 RMK A01 T03140138  RH  034%=      5-min Rain = 0
KLO1 142013Z 20004KT 31/14 A2993 RMK A01 T03140136  RH  034%=      5-min Rain = 0
KLO1 142014Z 19005KT 31/14 A2993 RMK A01 T03140137  RH  034%=      5-min Rain = 0
KLO1 142015Z 15003KT 31/14 A2992 RMK A01 T03130137  RH  034%=      5-min Rain = 0
KLO1 142016Z 18004KT 31/14 A2992 RMK A01 T03120137  RH  034%=      5-min Rain = 0
KLO1 142017Z 20003KT 31/14 A2992 RMK A01 T03130138  RH  035%=      5-min Rain = 0
KLO1 142018Z 22005KT 31/14 A2992 RMK A01 T03140135  RH  034%=      5-min Rain = 0
KLO1 142019Z 22004KT 32/13 A2992 RMK A01 T03150129  RH  032%=      5-min Rain = 0
KLO1 142020Z 25003KT 31/13 A2992 RMK A01 T03140133  RH  033%=      5-min Rain = 0
KLO1 142021Z 22006G12KT 32/13 A2992 RMK A01 T03160132  RH  033%=      5-min Rain = 0
KLO1 142022Z 17009KT 32/13 A2992 RMK A01 T03210129  RH  031%=      5-min Rain = 0
KLO1 142023Z 19007KT 32/13 A2992 RMK A01 T03230125  RH  030%=      5-min Rain = 0
KLO1 142024Z 19005KT 32/12 A2992 RMK A01 T03210122  RH  030%=      5-min Rain = 0
KLO1 142025Z 20005KT 32/12 A2991 RMK A01 T03200122  RH  030%=      5-min Rain = 0
KLO1 142026Z 19007KT 32/12 A2991 RMK A01 T03200124  RH  030%=      5-min Rain = 0
KLO1 142027Z 18006KT 32/12 A2991 RMK A01 T03190123  RH  030%=      5-min Rain = 0
KLO1 142028Z 18005KT 32/12 A2991 RMK A01 T03180122  RH  030%=      5-min Rain = 0
KLO1 142029Z 20005KT 32/12 A2991 RMK A01 T03180122  RH  030%=      5-min Rain = 0
KLO1 142030Z 19005KT 32/12 A2991 RMK A01 T03180121  RH  030%=      5-min Rain = 0
KLO1 142031Z 20005KT 32/12 A2991 RMK A01 T03210122  RH  030%=      5-min Rain = 0
KLO1 142032Z 20004KT 32/12 A2991 RMK A01 T03240123  RH  029%=      5-min Rain = 0
KLO1 142033Z 19005G10KT 33/12 A2991 RMK A01 T03260120  RH  029%=      5-min Rain = 0
KLO1 142034Z 20007KT 32/12 A2991 RMK A01 T03240117  RH  028%=      5-min Rain = 0
KLO1 142035Z 18006KT 32/12 A2991 RMK A01 T03210116  RH  029%=      5-min Rain = 0
KLO1 142036Z 16004KT 32/12 A2991 RMK A01 T03210116  RH  029%=      5-min Rain = 0
KLO1 142037Z 16003KT 32/12 A2991 RMK A01 T03210116  RH  028%=      5-min Rain = 0
KLO1 142038Z 18005G11KT 32/12 A2991 RMK A01 T03210116  RH  028%=      5-min Rain = 0
KLO1 142039Z 19006KT 32/11 A2991 RMK A01 T03210112  RH  028%=      5-min Rain = 0
KLO1 142040Z 20007KT 32/11 A2991 RMK A01 T03210110  RH  027%=      5-min Rain = 0
KLO1 142041Z 23006KT 32/11 A2991 RMK A01 T03220112  RH  028%=      5-min Rain = 0
KLO1 142042Z 23007KT 32/11 A2991 RMK A01 T03230112  RH  027%=      5-min Rain = 0
KLO1 142043Z 22006KT 33/11 A2991 RMK A01 T03280110  RH  026%=      5-min Rain = 0
KLO1 142044Z 23004KT 33/10 A2991 RMK A01 T03300103  RH  025%=      5-min Rain = 0
KLO1 142045Z 26004KT 33/10 A2991 RMK A01 T03300102  RH  025%=      5-min Rain = 0
KLO1 142046Z 24004KT 33/11 A2991 RMK A01 T03300106  RH  025%=      5-min Rain = 0
KLO1 142047Z 23004KT 33/11 A2991 RMK A01 T03300108  RH  026%=      5-min Rain = 0
KLO1 142048Z 21003KT 33/11 A299 RMK A01 T03290109  RH  026%=      5-min Rain = 0
KLO1 142049Z 21003KT 33/11 A299 RMK A01 T03300108  RH  026%=      5-min Rain = 0
KLO1 142050Z 23005KT 33/11 A299 RMK A01 T03300105  RH  025%=      5-min Rain = 0
KLO1 142051Z 23003KT 33/11 A299 RMK A01 T03290106  RH  026%=      5-min Rain = 0
KLO1 142052Z 21006KT 33/11 A299 RMK A01 T03300110  RH  026%=      5-min Rain = 0
KLO1 142053Z 22008G13KT 33/11 A299 RMK A01 T03330109  RH  026%=      5-min Rain = 0
KLO1 142054Z 26008KT 33/11 A299 RMK A01 T03330105  RH  025%=      5-min Rain = 0
KLO1 142055Z 22007G12KT 33/11 A299 RMK A01 T03310109  RH  026%=      5-min Rain = 0
KLO1 142056Z 21006KT 33/11 A299 RMK A01 T03320110  RH  026%=      5-min Rain = 0
KLO1 142057Z 19007KT 33/10 A299 RMK A01 T03340100  RH  024%=      5-min Rain = 0
KLO1 142058Z 22010KT 34/10 A299 RMK A01 T03370101  RH  024%=      5-min Rain = 0
KLO1 142059Z 23010KT 34/10 A2989 RMK A01 T03380100  RH  023%=      5-min Rain = 0
KLO1 142100Z 22009KT 34/10 A2989 RMK A01 T03370098  RH  023%=      5-min Rain = 0
KLO1 142101Z 26009KT 34/10 A2989 RMK A01 T03370100  RH  023%=      5-min Rain = 0
KLO1 142102Z 24010KT 34/10 A2989 RMK A01 T03410101  RH  023%=      5-min Rain = 0
KLO1 142103Z 23013KT 34/10 A2989 RMK A01 T03440100  RH  022%=      5-min Rain = 0
KLO1 142104Z 24007KT 34/10 A2989 RMK A01 T03400096  RH  022%=      5-min Rain = 0
KLO1 142105Z 24005KT 34/10 A2989 RMK A01 T03360096  RH  023%=      5-min Rain = 0
KLO1 142106Z 22004KT 34/10 A2989 RMK A01 T03360097  RH  023%=      5-min Rain = 0
KLO1 142107Z 19004KT 34/10 A2989 RMK A01 T03370100  RH  023%=      5-min Rain = 0
KLO1 142108Z 20003KT 34/10 A2988 RMK A01 T03380102  RH  024%=      5-min Rain = 0
KLO1 142109Z 21003KT 34/10 A2988 RMK A01 T03400102  RH  023%=      5-min Rain = 0
KLO1 142110Z 21008KT 34/11 A2988 RMK A01 T03410105  RH  024%=      5-min Rain = 0
KLO1 142111Z 23010KT 34/11 A2988 RMK A01 T03420106  RH  024%=      5-min Rain = 0
KLO1 142112Z 23007KT 34/11 A2988 RMK A01 T03410105  RH  024%=      5-min Rain = 0
KLO1 142113Z 21006KT 34/11 A2988 RMK A01 T03390106  RH  024%=      5-min Rain = 0
KLO1 142114Z 19005KT 34/11 A2988 RMK A01 T03390106  RH  024%=      5-min Rain = 0
KLO1 142115Z 21005KT 34/11 A2988 RMK A01 T03390106  RH  024%=      5-min Rain = 0
KLO1 142116Z 21004KT 34/11 A2988 RMK A01 T03380106  RH  024%=      5-min Rain = 0
KLO1 142117Z 20007KT 34/11 A2987 RMK A01 T03400106  RH  024%=      5-min Rain = 0
KLO1 142118Z 21011KT 34/10 A2987 RMK A01 T03400099  RH  023%=      5-min Rain = 0
KLO1 142119Z 20009KT 34/10 A2987 RMK A01 T03400097  RH  023%=      5-min Rain = 0
KLO1 142120Z 21010KT 34/10 A2987 RMK A01 T03410096  RH  022%=      5-min Rain = 0
KLO1 142121Z 22009KT 34/10 A2987 RMK A01 T03420095  RH  022%=      5-min Rain = 0
KLO1 142122Z 23008KT 34/09 A2987 RMK A01 T03420094  RH  022%=      5-min Rain = 0
KLO1 142123Z 20013KT 34/10 A2987 RMK A01 T03440099  RH  022%=      5-min Rain = 0
KLO1 142124Z 19011KT 35/10 A2987 RMK A01 T03450098  RH  022%=      5-min Rain = 0
KLO1 142125Z 22013KT 34/10 A2987 RMK A01 T03440099  RH  022%=      5-min Rain = 0
KLO1 142126Z 22011KT 35/10 A2987 RMK A01 T03450097  RH  022%=      5-min Rain = 0
KLO1 142127Z 22010KT 34/10 A2987 RMK A01 T03420098  RH  023%=      5-min Rain = 0
KLO1 142128Z 21004KT 34/10 A2986 RMK A01 T03410097  RH  022%=      5-min Rain = 0
KLO1 142129Z 20008KT 34/10 A2986 RMK A01 T03400098  RH  023%=      5-min Rain = 0
KLO1 142130Z 20010KT 34/10 A2986 RMK A01 T03410096  RH  022%=      5-min Rain = 0
KLO1 142131Z 22010G15KT 34/09 A2986 RMK A01 T03430094  RH  022%=      5-min Rain = 0
KLO1 142132Z 26011KT 34/09 A2986 RMK A01 T03430093  RH  022%=      5-min Rain = 0
KLO1 142133Z 27011KT 34/09 A2986 RMK A01 T03430089  RH  021%=      5-min Rain = 0
KLO1 142134Z 25010KT 34/09 A2986 RMK A01 T03430089  RH  021%=      5-min Rain = 0
KLO1 142135Z 23012KT 34/09 A2986 RMK A01 T03430089  RH  021%=      5-min Rain = 0
KLO1 142136Z 23008KT 34/09 A2986 RMK A01 T03420089  RH  021%=      5-min Rain = 0
KLO1 142137Z 22007KT 34/09 A2986 RMK A01 T03410088  RH  021%=      5-min Rain = 0
KLO1 142138Z 21007KT 34/09 A2986 RMK A01 T03420085  RH  021%=      5-min Rain = 0
KLO1 142139Z 22007KT 34/09 A2986 RMK A01 T03410087  RH  021%=      5-min Rain = 0
KLO1 142140Z 21011KT 34/09 A2986 RMK A01 T03420093  RH  022%=      5-min Rain = 0
KLO1 142141Z 22013KT 34/09 A2985 RMK A01 T03410093  RH  022%=      5-min Rain = 0
KLO1 142142Z 22012KT 34/09 A2985 RMK A01 T03420091  RH  021%=      5-min Rain = 0
KLO1 142143Z 22011KT 35/09 A2985 RMK A01 T03450089  RH  021%=      5-min Rain = 0
KLO1 142144Z 25014KT 35/09 A2985 RMK A01 T03460087  RH  020%=      5-min Rain = 0
KLO1 142145Z 26011KT 35/08 A2985 RMK A01 T03480081  RH  019%=      5-min Rain = 0
KLO1 142146Z 24015KT 35/08 A2985 RMK A01 T03450082  RH  020%=      5-min Rain = 0
KLO1 142147Z 25011KT 35/08 A2985 RMK A01 T03450079  RH  020%=      5-min Rain = 0
KLO1 142148Z 26013KT 35/08 A2985 RMK A01 T03470082  RH  020%=      5-min Rain = 0
KLO1 142149Z 26011KT 35/08 A2985 RMK A01 T03470082  RH  020%=      5-min Rain = 0
KLO1 142150Z 24014KT 35/08 A2985 RMK A01 T03470076  RH  019%=      5-min Rain = 0
KLO1 142151Z 24010KT 35/08 A2985 RMK A01 T03470076  RH  019%=      5-min Rain = 0
KLO1 142152Z 23011KT 35/08 A2985 RMK A01 T03450076  RH  019%=      5-min Rain = 0
KLO1 142153Z 24013KT 35/08 A2985 RMK A01 T03450082  RH  020%=      5-min Rain = 0
KLO1 142154Z 23011KT 34/08 A2985 RMK A01 T03440081  RH  020%=      5-min Rain = 0
KLO1 142155Z 22011KT 34/08 A2985 RMK A01 T03430082  RH  020%=      5-min Rain = 0
KLO1 142156Z 23011KT 34/09 A2984 RMK A01 T03440086  RH  021%=      5-min Rain = 0
KLO1 142157Z 24010KT 35/08 A2984 RMK A01 T03460081  RH  020%=      5-min Rain = 0
KLO1 142158Z 23015KT 35/07 A2984 RMK A01 T03490066  RH  017%=      5-min Rain = 0
KLO1 142159Z 25011G17KT 35/07 A2984 RMK A01 T03510068  RH  017%=      5-min Rain = 0
KLO1 142200Z 24013KT 35/07 A2984 RMK A01 T03530069  RH  017%=      5-min Rain = 0
KLO1 142201Z 25012KT 35/07 A2984 RMK A01 T03480070  RH  018%=      5-min Rain = 0
KLO1 142202Z 25015KT 35/07 A2984 RMK A01 T03460065  RH  018%=      5-min Rain = 0
KLO1 142203Z 26014KT 35/07 A2984 RMK A01 T03450065  RH  018%=      5-min Rain = 0
KLO1 142204Z 26014KT 35/07 A2984 RMK A01 T03450069  RH  018%=      5-min Rain = 0
KLO1 142205Z 23015KT 35/06 A2984 RMK A01 T03480060  RH  017%=      5-min Rain = 0
KLO1 142206Z 23013KT 35/07 A2984 RMK A01 T03480065  RH  017%=      5-min Rain = 0
KLO1 142207Z 23013KT 35/07 A2984 RMK A01 T03490070  RH  018%=      5-min Rain = 0
KLO1 142208Z 24011KT 35/07 A2984 RMK A01 T03520074  RH  018%=      5-min Rain = 0
KLO1 142209Z 23013KT 36/07 A2984 RMK A01 T03550070  RH  017%=      5-min Rain = 0
KLO1 142210Z 23020KT 35/07 A2984 RMK A01 T03540065  RH  017%=      5-min Rain = 0
KLO1 142211Z 24015KT 35/06 A2984 RMK A01 T03510064  RH  017%=      5-min Rain = 0
KLO1 142212Z 23013KT 35/07 A2984 RMK A01 T03490068  RH  018%=      5-min Rain = 0
KLO1 142213Z 23011KT 35/07 A2984 RMK A01 T03490072  RH  018%=      5-min Rain = 0
KLO1 142214Z 23014G19KT 35/07 A2984 RMK A01 T03520073  RH  018%=      5-min Rain = 0
KLO1 142215Z 23017KT 35/07 A2984 RMK A01 T03520067  RH  017%=      5-min Rain = 0
KLO1 142216Z 24013KT 35/07 A2984 RMK A01 T03490066  RH  018%=      5-min Rain = 0
KLO1 142217Z 22016KT 35/07 A2984 RMK A01 T03480066  RH  017%=      5-min Rain = 0
KLO1 142218Z 22018KT 35/06 A2984 RMK A01 T03490064  RH  017%=      5-min Rain = 0
KLO1 142219Z 23017KT 35/07 A2984 RMK A01 T03490069  RH  018%=      5-min Rain = 0
KLO1 142220Z 23018KT 35/06 A2984 RMK A01 T03500063  RH  017%=      5-min Rain = 0
KLO1 142221Z 23016KT 35/06 A2984 RMK A01 T03500062  RH  017%=      5-min Rain = 0
KLO1 142222Z 22015KT 35/06 A2984 RMK A01 T03470064  RH  017%=      5-min Rain = 0
KLO1 142223Z 23013G18KT 35/06 A2984 RMK A01 T03470059  RH  017%=      5-min Rain = 0
KLO1 142224Z 24017KT 35/06 A2984 RMK A01 T03500055  RH  016%=      5-min Rain = 0
KLO1 142225Z 24017KT 35/06 A2984 RMK A01 T03500057  RH  016%=      5-min Rain = 0
KLO1 142226Z 24018KT 35/06 A2984 RMK A01 T03510058  RH  016%=      5-min Rain = 0
KLO1 142227Z 24016KT 35/06 A2984 RMK A01 T03520062  RH  017%=      5-min Rain = 0
KLO1 142228Z 24018KT 35/06 A2984 RMK A01 T03500064  RH  017%=      5-min Rain = 0
KLO1 142229Z 24014KT 35/07 A2984 RMK A01 T03470066  RH  018%=      5-min Rain = 0
KLO1 142230Z 24016KT 35/06 A2984 RMK A01 T03450064  RH  018%=      5-min Rain = 0
KLO1 142231Z 23013KT 35/06 A2984 RMK A01 T03480060  RH  017%=      5-min Rain = 0
KLO1 142232Z 22014KT 35/07 A2984 RMK A01 T03540068  RH  017%=      5-min Rain = 0
KLO1 142233Z 21015KT 36/07 A2984 RMK A01 T03550065  RH  017%=      5-min Rain = 0
KLO1 142234Z 20014KT 35/06 A2984 RMK A01 T03530062  RH  017%=      5-min Rain = 0
KLO1 142235Z 21013KT 35/07 A2984 RMK A01 T03510067  RH  017%=      5-min Rain = 0
KLO1 142236Z 22012KT 35/07 A2984 RMK A01 T03510071  RH  018%=      5-min Rain = 0
KLO1 142237Z 23014KT 35/07 A2984 RMK A01 T03500074  RH  018%=      5-min Rain = 0
KLO1 142238Z 23014KT 35/07 A2984 RMK A01 T03500074  RH  018%=      5-min Rain = 0
KLO1 142239Z 22014KT 35/07 A2984 RMK A01 T03490071  RH  018%=      5-min Rain = 0
KLO1 142240Z 22014KT 35/07 A2984 RMK A01 T03480071  RH  018%=      5-min Rain = 0
KLO1 142241Z 23012KT 35/07 A2984 RMK A01 T03480073  RH  018%=      5-min Rain = 0
KLO1 142242Z 23011KT 35/08 A2984 RMK A01 T03510075  RH  018%=      5-min Rain = 0
KLO1 142243Z 23013KT 35/08 A2984 RMK A01 T03530075  RH  018%=      5-min Rain = 0
KLO1 142244Z 21012KT 35/07 A2984 RMK A01 T03540072  RH  018%=      5-min Rain = 0
KLO1 142245Z 21015G20KT 35/07 A2984 RMK A01 T03540072  RH  018%=      5-min Rain = 0
KLO1 142246Z 24014KT 35/07 A2984 RMK A01 T03530073  RH  018%=      5-min Rain = 0
KLO1 142247Z 25012KT 35/07 A2984 RMK A01 T03520074  RH  018%=      5-min Rain = 0
KLO1 142248Z 25010KT 35/08 A2984 RMK A01 T03510077  RH  019%=      5-min Rain = 0
KLO1 142249Z 22010KT 35/08 A2984 RMK A01 T03520076  RH  018%=      5-min Rain = 0
KLO1 142250Z 23010KT 35/08 A2984 RMK A01 T03530077  RH  018%=      5-min Rain = 0
KLO1 142251Z 22012KT 36/08 A2984 RMK A01 T03550076  RH  018%=      5-min Rain = 0
KLO1 142252Z 23015KT 36/07 A2984 RMK A01 T03550073  RH  018%=      5-min Rain = 0
KLO1 142253Z 23014KT 35/07 A2984 RMK A01 T03530072  RH  018%=      5-min Rain = 0
KLO1 142254Z 23011KT 35/07 A2984 RMK A01 T03510072  RH  018%=      5-min Rain = 0
KLO1 142255Z 22012KT 35/07 A2984 RMK A01 T03490073  RH  018%=      5-min Rain = 0
KLO1 142256Z 22013KT 35/07 A2984 RMK A01 T03500074  RH  018%=      5-min Rain = 0
KLO1 142257Z 23012KT 35/08 A2984 RMK A01 T03520076  RH  018%=      5-min Rain = 0
KLO1 142258Z 22010G16KT 35/08 A2984 RMK A01 T03530075  RH  018%=      5-min Rain = 0
KLO1 142259Z 21010KT 35/08 A2984 RMK A01 T03530075  RH  018%=      5-min Rain = 0
KLO1 142300Z 21009KT 35/07 A2984 RMK A01 T03530074  RH  018%=      5-min Rain = 0
KLO1 142301Z 22009KT 35/08 A2984 RMK A01 T03530075  RH  018%=      5-min Rain = 0
KLO1 142302Z 21014KT 35/08 A2984 RMK A01 T03530077  RH  018%=      5-min Rain = 0
KLO1 142303Z 21011KT 35/08 A2984 RMK A01 T03530076  RH  018%=      5-min Rain = 0
KLO1 142304Z 21009KT 35/08 A2984 RMK A01 T03530076  RH  018%=      5-min Rain = 0
KLO1 142305Z 22009KT 35/08 A2984 RMK A01 T03520077  RH  018%=      5-min Rain = 0
KLO1 142306Z 23007KT 35/08 A2984 RMK A01 T03510077  RH  019%=      5-min Rain = 0
KLO1 142307Z 24009KT 35/08 A2984 RMK A01 T03510076  RH  019%=      5-min Rain = 0
KLO1 142308Z 23011KT 35/08 A2984 RMK A01 T03510077  RH  019%=      5-min Rain = 0
KLO1 142309Z 22012KT 35/08 A2984 RMK A01 T03510077  RH  019%=      5-min Rain = 0
KLO1 142310Z 21013KT 35/07 A2984 RMK A01 T03500074  RH  018%=      5-min Rain = 0
KLO1 142311Z 22014KT 35/07 A2984 RMK A01 T03510071  RH  018%=      5-min Rain = 0
KLO1 142312Z 22011KT 35/07 A2984 RMK A01 T03490070  RH  018%=      5-min Rain = 0
KLO1 142313Z 21009KT 35/07 A2984 RMK A01 T03470071  RH  018%=      5-min Rain = 0
KLO1 142314Z 22009KT 35/07 A2984 RMK A01 T03470073  RH  018%=      5-min Rain = 0
KLO1 142315Z 21006KT 35/07 A2984 RMK A01 T03470070  RH  018%=      5-min Rain = 0
KLO1 142316Z 21007KT 35/07 A2984 RMK A01 T03470071  RH  018%=      5-min Rain = 0
KLO1 142317Z 21008KT 35/07 A2984 RMK A01 T03470068  RH  018%=      5-min Rain = 0
KLO1 142318Z 21014KT 35/06 A2984 RMK A01 T03490063  RH  017%=      5-min Rain = 0
KLO1 142319Z 21013KT 35/06 A2984 RMK A01 T03500060  RH  017%=      5-min Rain = 0
KLO1 142320Z 21011KT 35/06 A2984 RMK A01 T03500057  RH  016%=      5-min Rain = 0
KLO1 142321Z 22010KT 35/06 A2984 RMK A01 T03500056  RH  016%=      5-min Rain = 0
KLO1 142322Z 22008KT 35/06 A2984 RMK A01 T03500057  RH  016%=      5-min Rain = 0
KLO1 142323Z 19008KT 35/05 A2984 RMK A01 T03490054  RH  016%=      5-min Rain = 0
KLO1 142324Z 21007KT 35/05 A2984 RMK A01 T03480052  RH  016%=      5-min Rain = 0
KLO1 142325Z 20005KT 35/05 A2984 RMK A01 T03480052  RH  016%=      5-min Rain = 0
KLO1 142326Z 21002KT 35/05 A2985 RMK A01 T03480053  RH  016%=      5-min Rain = 0
KLO1 142327Z 10003KT 35/05 A2985 RMK A01 T03510054  RH  016%=      5-min Rain = 0
KLO1 142328Z 07009KT 35/07 A2985 RMK A01 T03520073  RH  018%=      5-min Rain = 0
KLO1 142329Z 07008KT 34/11 A2985 RMK A01 T03410112  RH  025%=      5-min Rain = 0
KLO1 142330Z 03005KT 33/12 A2985 RMK A01 T03300115  RH  027%=      5-min Rain = 0
KLO1 142331Z 01007KT 32/12 A2984 RMK A01 T03240115  RH  028%=      5-min Rain = 0
KLO1 142332Z 34007KT 32/11 A2984 RMK A01 T03210113  RH  028%=      5-min Rain = 0
KLO1 142333Z 28003KT 32/11 A2984 RMK A01 T03200113  RH  028%=      5-min Rain = 0
KLO1 142334Z 13008G15KT 32/11 A2984 RMK A01 T03200113  RH  028%=      5-min Rain = 0
KLO1 142335Z 14011KT 32/11 A2984 RMK A01 T03200113  RH  028%=      5-min Rain = 0
KLO1 142336Z 14006KT 32/11 A2984 RMK A01 T03190112  RH  028%=      5-min Rain = 0
KLO1 142337Z 06010G26KT 32/11 A2981 RMK A01 T03190112  RH  028%=      5-min Rain = 0
KLO1 142338Z 15013G20KT 32/11 A2983 RMK A01 T03220112  RH  028%=      5-min Rain = 0
KLO1 142339Z 15013KT 32/11 A2984 RMK A01 T03240107  RH  026%=      5-min Rain = 0
KLO1 142340Z 14016KT 33/11 A2984 RMK A01 T03260109  RH  027%=      5-min Rain = 0
KLO1 142341Z 11014KT 33/11 A2984 RMK A01 T03260109  RH  027%=      5-min Rain = 0
KLO1 142342Z 10015KT 32/11 A2984 RMK A01 T03230108  RH  027%=      5-min Rain = 0
KLO1 142343Z 09014KT 32/11 A2984 RMK A01 T03210106  RH  027%=      5-min Rain = 0
KLO1 142344Z 10013KT 32/11 A2984 RMK A01 T03190105  RH  027%=      5-min Rain = 0
KLO1 142345Z 10014KT 32/11 A2984 RMK A01 T03190105  RH  027%=      5-min Rain = 0
KLO1 142346Z 10013KT 32/11 A2984 RMK A01 T03190105  RH  027%=      5-min Rain = 0
KLO1 142347Z 09014KT 32/11 A2984 RMK A01 T03190106  RH  027%=      5-min Rain = 0
KLO1 142348Z 09014KT 32/11 A2984 RMK A01 T03190106  RH  027%=      5-min Rain = 0
KLO1 142349Z 09015KT 32/11 A2984 RMK A01 T03190107  RH  027%=      5-min Rain = 0
KLO1 142350Z 10012G17KT 32/11 A2984 RMK A01 T03180107  RH  027%=      5-min Rain = 0
KLO1 142351Z 10012KT 32/11 A2984 RMK A01 T03190108  RH  027%=      5-min Rain = 0
KLO1 142352Z 08015G21KT 32/11 A2984 RMK A01 T03200108  RH  027%=      5-min Rain = 0
KLO1 142353Z 09020KT 32/11 A2984 RMK A01 T03180109  RH  028%=      5-min Rain = 0
KLO1 142354Z 08020KT 32/11 A2984 RMK A01 T03150109  RH  028%=      5-min Rain = 0
KLO1 142355Z 09015KT 31/11 A2984 RMK A01 T03130110  RH  029%=      5-min Rain = 0
KLO1 142356Z 09020KT 31/11 A2983 RMK A01 T03120110  RH  029%=      5-min Rain = 0
KLO1 142357Z 09018KT 31/11 A2983 RMK A01 T03120110  RH  029%=      5-min Rain = 0
KLO1 142358Z 09017KT 31/11 A2983 RMK A01 T03130108  RH  028%=      5-min Rain = 0
KLO1 142359Z 09014KT 31/10 A2983 RMK A01 T03140103  RH  027%=      5-min Rain = 0
KLO1 150000Z 09016KT 32/11 A2984 RMK A01 T03160106  RH  027%=      5-min Rain = 0
KLO1 150001Z 09017KT 31/11 A2984 RMK A01 T03140110  RH  028%=      5-min Rain = 0
KLO1 150002Z 09017KT 31/11 A2983 RMK A01 T03130109  RH  028%=      5-min Rain = 0
KLO1 150003Z 09014KT 31/11 A2983 RMK A01 T03130110  RH  029%=      5-min Rain = 0
KLO1 150004Z 10013G18KT 31/11 A2983 RMK A01 T03130109  RH  028%=      5-min Rain = 0
KLO1 150005Z 09016G21KT 31/11 A2983 RMK A01 T03140110  RH  029%=      5-min Rain = 0
KLO1 150006Z 09018KT 31/11 A2984 RMK A01 T03140111  RH  029%=      5-min Rain = 0
KLO1 150007Z 08015KT 31/11 A2984 RMK A01 T03120112  RH  029%=      5-min Rain = 0
KLO1 150008Z 09016KT 31/11 A2984 RMK A01 T03120112  RH  029%=      5-min Rain = 0
KLO1 150009Z 09017KT 31/11 A2984 RMK A01 T03120111  RH  029%=      5-min Rain = 0
KLO1 150010Z 09015KT 31/11 A2984 RMK A01 T03110112  RH  029%=      5-min Rain = 0
KLO1 150011Z 09016KT 31/11 A2984 RMK A01 T03120113  RH  029%=      5-min Rain = 0
KLO1 150012Z 09017KT 31/11 A2984 RMK A01 T03120112  RH  029%=      5-min Rain = 0
KLO1 150013Z 09015KT 31/11 A2984 RMK A01 T03110112  RH  029%=      5-min Rain = 0
KLO1 150014Z 08014KT 31/11 A2984 RMK A01 T03100112  RH  029%=      5-min Rain = 0
KLO1 150015Z 10015G22KT 31/11 A2984 RMK A01 T03100112  RH  030%=      5-min Rain = 0
KLO1 150016Z 10017KT 31/11 A2984 RMK A01 T03090112  RH  030%=      5-min Rain = 0
KLO1 150017Z 10019KT 31/11 A2984 RMK A01 T03080112  RH  030%=      5-min Rain = 0
KLO1 150018Z 09021KT 31/11 A2984 RMK A01 T03070111  RH  030%=      5-min Rain = 0
KLO1 150019Z 10019G24KT 31/11 A2984 RMK A01 T03050110  RH  030%=      5-min Rain = 0
KLO1 150020Z 10016G21KT 30/11 A2984 RMK A01 T03040110  RH  030%=      5-min Rain = 0
KLO1 150021Z 10016KT 30/11 A2984 RMK A01 T03030111  RH  030%=      5-min Rain = 0
KLO1 150022Z 09016KT 30/11 A2984 RMK A01 T03030112  RH  031%=      5-min Rain = 0
KLO1 150023Z 10015KT 30/11 A2984 RMK A01 T03010112  RH  031%=      5-min Rain = 0
KLO1 150024Z 10013KT 30/11 A2984 RMK A01 T03010112  RH  031%=      5-min Rain = 0
KLO1 150025Z 10014KT 30/11 A2984 RMK A01 T03010113  RH  031%=      5-min Rain = 0
KLO1 150026Z 10015KT 30/11 A2984 RMK A01 T03010114  RH  031%=      5-min Rain = 0
KLO1 150027Z 11017KT 30/11 A2985 RMK A01 T03010113  RH  031%=      5-min Rain = 0
KLO1 150028Z 10016KT 30/11 A2985 RMK A01 T03010112  RH  031%=      5-min Rain = 0
KLO1 150029Z 10013G20KT 30/11 A2985 RMK A01 T03010112  RH  031%=      5-min Rain = 0
KLO1 150030Z 11014KT 30/11 A2985 RMK A01 T03010112  RH  031%=      5-min Rain = 0
KLO1 150031Z 11015KT 30/11 A2985 RMK A01 T03010112  RH  031%=      5-min Rain = 0
KLO1 150032Z 11015KT 30/11 A2985 RMK A01 T03020113  RH  031%=      5-min Rain = 0
KLO1 150033Z 11015KT 30/11 A2985 RMK A01 T03020113  RH  031%=      5-min Rain = 0
KLO1 150034Z 11016KT 30/11 A2985 RMK A01 T03020113  RH  031%=      5-min Rain = 0
KLO1 150035Z 10015KT 30/11 A2985 RMK A01 T03010112  RH  031%=      5-min Rain = 0
KLO1 150036Z 11014KT 30/11 A2985 RMK A01 T03010112  RH  031%=      5-min Rain = 0
KLO1 150037Z 11013KT 30/11 A2985 RMK A01 T03010111  RH  031%=      5-min Rain = 0
KLO1 150038Z 11012G18KT 30/11 A2985 RMK A01 T03020110  RH  031%=      5-min Rain = 0
KLO1 150039Z 11018KT 30/11 A2985 RMK A01 T03020110  RH  030%=      5-min Rain = 0
KLO1 150040Z 11017KT 30/11 A2985 RMK A01 T03020110  RH  030%=      5-min Rain = 0
KLO1 150041Z 11016KT 30/11 A2985 RMK A01 T03020110  RH  031%=      5-min Rain = 0
KLO1 150042Z 11015KT 30/11 A2985 RMK A01 T03020111  RH  031%=      5-min Rain = 0
KLO1 150043Z 11014G19KT 30/11 A2985 RMK A01 T03020112  RH  031%=      5-min Rain = 0
KLO1 150044Z 11017KT 30/11 A2985 RMK A01 T03020113  RH  031%=      5-min Rain = 0
KLO1 150045Z 10017KT 30/11 A2985 RMK A01 T03010114  RH  032%=      5-min Rain = 0
KLO1 150046Z 11017KT 30/12 A2985 RMK A01 T03010115  RH  032%=      5-min Rain = 0
KLO1 150047Z 10017KT 30/12 A2985 RMK A01 T03010115  RH  032%=      5-min Rain = 0
KLO1 150048Z 11017KT 30/11 A2985 RMK A01 T03010114  RH  032%=      5-min Rain = 0
KLO1 150049Z 12018KT 30/11 A2985 RMK A01 T03010112  RH  031%=      5-min Rain = 0
KLO1 150050Z 11016KT 30/11 A2985 RMK A01 T03010111  RH  031%=      5-min Rain = 0
KLO1 150051Z 12018KT 30/11 A2985 RMK A01 T03010111  RH  031%=      5-min Rain = 0
KLO1 150052Z 11020KT 30/11 A2986 RMK A01 T03010111  RH  031%=      5-min Rain = 0
KLO1 150053Z 11019KT 30/11 A2986 RMK A01 T03010112  RH  031%=      5-min Rain = 0
KLO1 150054Z 11017KT 30/11 A2986 RMK A01 T03010112  RH  031%=      5-min Rain = 0
KLO1 150055Z 11016KT 30/11 A2986 RMK A01 T03000112  RH  031%=      5-min Rain = 0
KLO1 150056Z 12015KT 30/11 A2986 RMK A01 T03000112  RH  031%=      5-min Rain = 0
KLO1 150057Z 11014KT 30/11 A2986 RMK A01 T02990112  RH  031%=      5-min Rain = 0
KLO1 150058Z 11015KT 30/11 A2986 RMK A01 T02990112  RH  031%=      5-min Rain = 0
KLO1 150059Z 11014KT 30/11 A2986 RMK A01 T02990112  RH  031%=      5-min Rain = 0
KLO1 150100Z 11015KT 30/11 A2986 RMK A01 T02990111  RH  031%=      5-min Rain = 0
KLO1 150101Z 11016G21KT 30/11 A2986 RMK A01 T03000111  RH  031%=      5-min Rain = 0
KLO1 150102Z 12018KT 30/11 A2986 RMK A01 T03000112  RH  031%=      5-min Rain = 0
KLO1 150103Z 12018KT 30/11 A2987 RMK A01 T02990112  RH  032%=      5-min Rain = 0
KLO1 150104Z 12016KT 30/11 A2987 RMK A01 T02980111  RH  031%=      5-min Rain = 0
KLO1 150105Z 12018KT 30/11 A2987 RMK A01 T02980111  RH  031%=      5-min Rain = 0
KLO1 150106Z 12020KT 30/11 A2987 RMK A01 T02980109  RH  031%=      5-min Rain = 0
KLO1 150107Z 13019KT 30/11 A2987 RMK A01 T02970107  RH  031%=      5-min Rain = 0
KLO1 150108Z 13019KT 30/11 A2987 RMK A01 T02970106  RH  031%=      5-min Rain = 0
KLO1 150109Z 13019KT 30/11 A2987 RMK A01 T02960105  RH  031%=      5-min Rain = 0
KLO1 150110Z 12019KT 30/11 A2987 RMK A01 T02960105  RH  031%=      5-min Rain = 0
KLO1 150111Z 12020KT 30/11 A2987 RMK A01 T02950106  RH  031%=      5-min Rain = 0
KLO1 150112Z 13018G23KT 29/11 A2987 RMK A01 T02940112  RH  032%=      5-min Rain = 0
KLO1 150113Z 13017KT 29/12 A2987 RMK A01 T02930119  RH  034%=      5-min Rain = 0
KLO1 150114Z 13017G24KT 29/12 A2987 RMK A01 T02920122  RH  035%=      5-min Rain = 0
KLO1 150115Z 13019G24KT 29/13 A2987 RMK A01 T02910126  RH  036%=      5-min Rain = 0
KLO1 150116Z 14016G21KT 29/13 A2988 RMK A01 T02900129  RH  037%=      5-min Rain = 0
KLO1 150117Z 14020KT 29/14 A2988 RMK A01 T02890136  RH  039%=      5-min Rain = 0
KLO1 150118Z 14023KT 29/14 A2988 RMK A01 T02860143  RH  042%=      5-min Rain = 0
KLO1 150119Z 15023G28KT 28/15 A2988 RMK A01 T02810149  RH  044%=      5-min Rain = 0
KLO1 150120Z 15022KT 28/15 A2988 RMK A01 T02760152  RH  047%=      5-min Rain = 0
KLO1 150121Z 14019KT 27/15 A2988 RMK A01 T02720153  RH  048%=      5-min Rain = 0
KLO1 150122Z 13019G25KT 27/16 A2988 RMK A01 T02700155  RH  049%=      5-min Rain = 0
KLO1 150123Z 13022KT 27/16 A2988 RMK A01 T02680157  RH  050%=      5-min Rain = 0
KLO1 150124Z 13020G25KT 27/16 A2988 RMK A01 T02660157  RH  051%=      5-min Rain = 0
KLO1 150125Z 13019KT 27/16 A2988 RMK A01 T02650157  RH  051%=      5-min Rain = 0
KLO1 150126Z 13020KT 27/16 A2988 RMK A01 T02650158  RH  052%=      5-min Rain = 0
KLO1 150127Z 13021G27KT 27/16 A2988 RMK A01 T02650159  RH  052%=      5-min Rain = 0
KLO1 150128Z 13026KT 26/16 A2988 RMK A01 T02620162  RH  054%=      5-min Rain = 0
KLO1 150129Z 13022G27KT 26/16 A2988 RMK A01 T02550164  RH  057%=      5-min Rain = 0
KLO1 150130Z 13021KT 25/16 A2988 RMK A01 T02510164  RH  058%=      5-min Rain = 0
KLO1 150131Z 13021KT 25/17 A2988 RMK A01 T02490165  RH  059%=      5-min Rain = 0
KLO1 150132Z 13017KT 25/17 A2989 RMK A01 T02470165  RH  060%=      5-min Rain = 0
KLO1 150133Z 13016KT 25/16 A2989 RMK A01 T02450164  RH  061%=      5-min Rain = 0
KLO1 150134Z 14018KT 25/16 A2989 RMK A01 T02450164  RH  061%=      5-min Rain = 0
KLO1 150135Z 14022KT 25/16 A2989 RMK A01 T02450163  RH  060%=      5-min Rain = 0
KLO1 150136Z 14018KT 24/16 A2989 RMK A01 T02440162  RH  060%=      5-min Rain = 0
KLO1 150137Z 14018G23KT 24/16 A2989 RMK A01 T02440161  RH  060%=      5-min Rain = 0
KLO1 150138Z 14017KT 24/16 A2989 RMK A01 T02440160  RH  059%=      5-min Rain = 0
KLO1 150139Z 14017KT 24/16 A2989 RMK A01 T02440158  RH  059%=      5-min Rain = 0
KLO1 150140Z 14018KT 24/15 A2989 RMK A01 T02440153  RH  057%=      5-min Rain = 0
KLO1 150141Z 13019KT 24/15 A2989 RMK A01 T02440151  RH  056%=      5-min Rain = 0
KLO1 150142Z 14018KT 24/15 A2989 RMK A01 T02430150  RH  056%=      5-min Rain = 0
KLO1 150143Z 13017KT 24/15 A2989 RMK A01 T02430149  RH  056%=      5-min Rain = 0
KLO1 150144Z 13014KT 24/15 A2989 RMK A01 T02430150  RH  056%=      5-min Rain = 0
KLO1 150145Z 13013KT 24/15 A2989 RMK A01 T02420149  RH  056%=      5-min Rain = 0
KLO1 150146Z 13012KT 24/15 A2989 RMK A01 T02420149  RH  056%=      5-min Rain = 0
KLO1 150147Z 13015KT 24/15 A2989 RMK A01 T02420148  RH  056%=      5-min Rain = 0
KLO1 150148Z 13014KT 24/15 A2989 RMK A01 T02420147  RH  055%=      5-min Rain = 0
KLO1 150149Z 14016KT 24/15 A299 RMK A01 T02420145  RH  055%=      5-min Rain = 0
KLO1 150150Z 14015G20KT 24/14 A299 RMK A01 T02420144  RH  054%=      5-min Rain = 0
KLO1 150151Z 14018KT 24/14 A299 RMK A01 T02420144  RH  054%=      5-min Rain = 0
KLO1 150152Z 14017G22KT 24/14 A299 RMK A01 T02410143  RH  054%=      5-min Rain = 0
KLO1 150153Z 14013KT 24/14 A299 RMK A01 T02410143  RH  054%=      5-min Rain = 0
KLO1 150154Z 14015KT 24/14 A299 RMK A01 T02400142  RH  054%=      5-min Rain = 0
KLO1 150155Z 14016KT 24/14 A299 RMK A01 T02400142  RH  054%=      5-min Rain = 0
KLO1 150156Z 14018KT 24/14 A299 RMK A01 T02400141  RH  054%=      5-min Rain = 0
KLO1 150157Z 14015KT 24/14 A299 RMK A01 T02400141  RH  054%=      5-min Rain = 0
KLO1 150158Z 15013KT 24/14 A299 RMK A01 T02400141  RH  054%=      5-min Rain = 0
KLO1 150159Z 14012KT 24/14 A299 RMK A01 T02400141  RH  054%=      5-min Rain = 0
KLO1 150200Z 15016KT 24/14 A299 RMK A01 T02390141  RH  054%=      5-min Rain = 0
KLO1 150201Z 14013KT 24/14 A299 RMK A01 T02390141  RH  054%=      5-min Rain = 0
KLO1 150202Z 15012KT 24/14 A299 RMK A01 T02400141  RH  054%=      5-min Rain = 0
KLO1 150203Z 14016KT 24/14 A299 RMK A01 T02390141  RH  054%=      5-min Rain = 0
KLO1 150204Z 14016KT 24/14 A299 RMK A01 T02390141  RH  054%=      5-min Rain = 0
KLO1 150205Z 14014KT 24/14 A299 RMK A01 T02400141  RH  054%=      5-min Rain = 0
KLO1 150206Z 14014KT 24/14 A299 RMK A01 T02400141  RH  054%=      5-min Rain = 0
KLO1 150207Z 14013KT 24/14 A299 RMK A01 T02400142  RH  054%=      5-min Rain = 0
KLO1 150208Z 14013KT 24/14 A299 RMK A01 T02400141  RH  054%=      5-min Rain = 0
KLO1 150209Z 15012KT 24/14 A2991 RMK A01 T02400142  RH  054%=      5-min Rain = 0
KLO1 150210Z 14014KT 24/14 A2991 RMK A01 T02400142  RH  054%=      5-min Rain = 0
KLO1 150211Z 15014KT 24/14 A2991 RMK A01 T02400143  RH  054%=      5-min Rain = 0
KLO1 150212Z 14014KT 24/14 A299 RMK A01 T02410143  RH  054%=      5-min Rain = 0
KLO1 150213Z 15018KT 24/14 A299 RMK A01 T02410144  RH  054%=      5-min Rain = 0
KLO1 150214Z 15017KT 24/15 A299 RMK A01 T02420145  RH  055%=      5-min Rain = 0
KLO1 150215Z 15017KT 24/15 A299 RMK A01 T02420146  RH  055%=      5-min Rain = 0
KLO1 150216Z 15014KT 24/15 A2991 RMK A01 T02420147  RH  055%=      5-min Rain = 0
KLO1 150217Z 15013KT 24/15 A2991 RMK A01 T02430147  RH  055%=      5-min Rain = 0
KLO1 150218Z 15016KT 24/15 A2991 RMK A01 T02430148  RH  055%=      5-min Rain = 0
KLO1 150219Z 14016KT 24/15 A2991 RMK A01 T02440150  RH  056%=      5-min Rain = 0
KLO1 150220Z 14014KT 24/15 A2991 RMK A01 T02440152  RH  056%=      5-min Rain = 0
KLO1 150221Z 14014KT 25/15 A2991 RMK A01 T02450152  RH  056%=      5-min Rain = 0
KLO1 150222Z 14014KT 25/15 A2991 RMK A01 T02450153  RH  056%=      5-min Rain = 0
KLO1 150223Z 14013G19KT 25/15 A2991 RMK A01 T02460154  RH  056%=      5-min Rain = 0
KLO1 150224Z 14013KT 25/15 A2991 RMK A01 T02460154  RH  056%=      5-min Rain = 0
KLO1 150225Z 14014KT 25/16 A2991 RMK A01 T02460157  RH  057%=      5-min Rain = 0
KLO1 150226Z 14013KT 25/16 A2991 RMK A01 T02470158  RH  058%=      5-min Rain = 0
KLO1 150227Z 14013KT 25/16 A2991 RMK A01 T02480159  RH  058%=      5-min Rain = 0
KLO1 150228Z 14017KT 25/16 A2991 RMK A01 T02480163  RH  059%=      5-min Rain = 0
KLO1 150229Z 14014KT 25/16 A2991 RMK A01 T02490164  RH  059%=      5-min Rain = 0
KLO1 150230Z 14015KT 25/17 A2991 RMK A01 T02500167  RH  060%=      5-min Rain = 0
KLO1 150231Z 15015KT 25/17 A2991 RMK A01 T02510169  RH  060%=      5-min Rain = 0
KLO1 150232Z 14016G21KT 25/17 A2991 RMK A01 T02520170  RH  060%=      5-min Rain = 0
KLO1 150233Z 15017G22KT 25/17 A2991 RMK A01 T02530172  RH  061%=      5-min Rain = 0
KLO1 150234Z 15017KT 25/17 A2991 RMK A01 T02530172  RH  061%=      5-min Rain = 0
KLO1 150235Z 15019KT 25/17 A2991 RMK A01 T02530171  RH  060%=      5-min Rain = 0
KLO1 150236Z 14020G26KT 25/17 A2991 RMK A01 T02530172  RH  061%=      5-min Rain = 0
KLO1 150237Z 15018KT 25/17 A2991 RMK A01 T02530171  RH  060%=      5-min Rain = 0
KLO1 150238Z 15017KT 25/17 A2991 RMK A01 T02530171  RH  060%=      5-min Rain = 0
KLO1 150239Z 15017G22KT 25/17 A2991 RMK A01 T02530171  RH  060%=      5-min Rain = 0
KLO1 150240Z 15018KT 25/17 A2991 RMK A01 T02530172  RH  061%=      5-min Rain = 0
KLO1 150241Z 15020KT 25/17 A2991 RMK A01 T02530171  RH  061%=      5-min Rain = 0
KLO1 150242Z 15017KT 25/17 A2991 RMK A01 T02530171  RH  061%=      5-min Rain = 0
KLO1 150243Z 15017KT 25/17 A2991 RMK A01 T02520171  RH  061%=      5-min Rain = 0
KLO1 150244Z 15017KT 25/17 A2991 RMK A01 T02520170  RH  061%=      5-min Rain = 0
KLO1 150245Z 15017KT 25/17 A2991 RMK A01 T02520171  RH  061%=      5-min Rain = 0
KLO1 150246Z 15017G22KT 25/17 A2991 RMK A01 T02510170  RH  061%=      5-min Rain = 0
KLO1 150247Z 15020KT 25/17 A2991 RMK A01 T02510170  RH  060%=      5-min Rain = 0
KLO1 150248Z 15016KT 25/17 A2992 RMK A01 T02510169  RH  060%=      5-min Rain = 0
KLO1 150249Z 15015KT 25/17 A2992 RMK A01 T02510168  RH  060%=      5-min Rain = 0
KLO1 150250Z 15014G19KT 25/17 A2992 RMK A01 T02510168  RH  060%=      5-min Rain = 0
KLO1 150251Z 15015KT 25/17 A2992 RMK A01 T02510167  RH  060%=      5-min Rain = 0
KLO1 150252Z 15018KT 25/17 A2992 RMK A01 T02510166  RH  059%=      5-min Rain = 0
KLO1 150253Z 16017KT 25/17 A2992 RMK A01 T02510166  RH  059%=      5-min Rain = 0
KLO1 150254Z 15017KT 25/17 A2992 RMK A01 T02510165  RH  059%=      5-min Rain = 0
KLO1 150255Z 15017KT 25/17 A2992 RMK A01 T02510165  RH  059%=      5-min Rain = 0
KLO1 150256Z 15014KT 25/16 A2992 RMK A01 T02510164  RH  059%=      5-min Rain = 0
KLO1 150257Z 15014KT 25/16 A2992 RMK A01 T02510164  RH  058%=      5-min Rain = 0
KLO1 150258Z 16014KT 25/16 A2992 RMK A01 T02500163  RH  058%=      5-min Rain = 0
KLO1 150259Z 15014G20KT 25/16 A2992 RMK A01 T02500163  RH  058%=      5-min Rain = 0
KLO1 150300Z 15017KT 25/16 A2992 RMK A01 T02500163  RH  058%=      5-min Rain = 0
KLO1 150301Z 15014KT 25/16 A2992 RMK A01 T02500163  RH  058%=      5-min Rain = 0
KLO1 150302Z 16015KT 25/16 A2992 RMK A01 T02490162  RH  058%=      5-min Rain = 0
KLO1 150303Z 16013KT 25/16 A2992 RMK A01 T02490162  RH  058%=      5-min Rain = 0
KLO1 150304Z 16016KT 25/16 A2992 RMK A01 T02490162  RH  059%=      5-min Rain = 0
KLO1 150305Z 16012KT 25/16 A2992 RMK A01 T02480163  RH  059%=      5-min Rain = 0
KLO1 150306Z 16012KT 25/16 A2992 RMK A01 T02480162  RH  059%=      5-min Rain = 0
KLO1 150307Z 15013KT 25/16 A2992 RMK A01 T02480162  RH  059%=      5-min Rain = 0
KLO1 150308Z 16014KT 25/16 A2992 RMK A01 T02470163  RH  059%=      5-min Rain = 0
KLO1 150309Z 16015KT 25/16 A2992 RMK A01 T02470163  RH  059%=      5-min Rain = 0
KLO1 150310Z 16012KT 25/16 A2992 RMK A01 T02470163  RH  060%=      5-min Rain = 0
KLO1 150311Z 16016KT 25/16 A2992 RMK A01 T02470163  RH  060%=      5-min Rain = 0
KLO1 150312Z 16015KT 25/16 A2992 RMK A01 T02460164  RH  060%=      5-min Rain = 0
KLO1 150313Z 16014KT 25/16 A2993 RMK A01 T02460164  RH  060%=      5-min Rain = 0
KLO1 150314Z 16013KT 25/16 A2993 RMK A01 T02460164  RH  060%=      5-min Rain = 0
KLO1 150315Z 16013KT 25/16 A2993 RMK A01 T02460164  RH  060%=      5-min Rain = 0
KLO1 150316Z 16012KT 25/16 A2993 RMK A01 T02450164  RH  060%=      5-min Rain = 0
KLO1 150317Z 16011KT 25/16 A2993 RMK A01 T02450163  RH  061%=      5-min Rain = 0
KLO1 150318Z 16013KT 24/16 A2993 RMK A01 T02440163  RH  061%=      5-min Rain = 0
KLO1 150319Z 16011KT 24/16 A2993 RMK A01 T02440163  RH  061%=      5-min Rain = 0
KLO1 150320Z 16012KT 24/16 A2993 RMK A01 T02440163  RH  061%=      5-min Rain = 0
KLO1 150321Z 15015KT 24/16 A2993 RMK A01 T02440163  RH  061%=      5-min Rain = 0
KLO1 150322Z 16012KT 24/16 A2993 RMK A01 T02440163  RH  061%=      5-min Rain = 0
KLO1 150323Z 16014KT 24/16 A2993 RMK A01 T02430163  RH  061%=      5-min Rain = 0
KLO1 150324Z 15014KT 24/16 A2993 RMK A01 T02430163  RH  061%=      5-min Rain = 0
KLO1 150325Z 16012KT 24/16 A2993 RMK A01 T02430162  RH  061%=      5-min Rain = 0
KLO1 150326Z 15011KT 24/16 A2994 RMK A01 T02430162  RH  061%=      5-min Rain = 0
KLO1 150327Z 16011KT 24/16 A2994 RMK A01 T02430162  RH  061%=      5-min Rain = 0
KLO1 150328Z 16011KT 24/16 A2994 RMK A01 T02420162  RH  061%=      5-min Rain = 0
KLO1 150329Z 16010KT 24/16 A2994 RMK A01 T02420162  RH  061%=      5-min Rain = 0
KLO1 150330Z 15013KT 24/16 A2994 RMK A01 T02410162  RH  061%=      5-min Rain = 0
KLO1 150331Z 15011KT 24/16 A2994 RMK A01 T02410162  RH  061%=      5-min Rain = 0
KLO1 150332Z 16012KT 24/16 A2994 RMK A01 T02410162  RH  061%=      5-min Rain = 0
KLO1 150333Z 16011KT 24/16 A2993 RMK A01 T02410161  RH  061%=      5-min Rain = 0
KLO1 150334Z 16014KT 24/16 A2993 RMK A01 T02400161  RH  061%=      5-min Rain = 0
KLO1 150335Z 16014KT 24/16 A2993 RMK A01 T02400161  RH  061%=      5-min Rain = 0
KLO1 150336Z 17013KT 24/16 A2993 RMK A01 T02400161  RH  061%=      5-min Rain = 0
KLO1 150337Z 17013KT 24/16 A2993 RMK A01 T02400162  RH  061%=      5-min Rain = 0
KLO1 150338Z 17013KT 24/16 A2993 RMK A01 T02400161  RH  062%=      5-min Rain = 0
KLO1 150339Z 17013KT 24/16 A2993 RMK A01 T02390162  RH  062%=      5-min Rain = 0
KLO1 150340Z 17013KT 24/16 A2993 RMK A01 T02390161  RH  062%=      5-min Rain = 0
KLO1 150341Z 18014KT 24/16 A2993 RMK A01 T02390161  RH  062%=      5-min Rain = 0
KLO1 150342Z 17015KT 24/16 A2993 RMK A01 T02400163  RH  062%=      5-min Rain = 0
KLO1 150343Z 18014KT 24/16 A2994 RMK A01 T02400163  RH  062%=      5-min Rain = 0
KLO1 150344Z 18015KT 24/16 A2994 RMK A01 T02400163  RH  062%=      5-min Rain = 0
KLO1 150345Z 18016KT 24/16 A2994 RMK A01 T02400164  RH  062%=      5-min Rain = 0
KLO1 150346Z 18017KT 24/17 A2994 RMK A01 T02410165  RH  063%=      5-min Rain = 0
KLO1 150347Z 18013G18KT 24/17 A2994 RMK A01 T02410165  RH  063%=      5-min Rain = 0
KLO1 150348Z 18016KT 24/17 A2994 RMK A01 T02410165  RH  063%=      5-min Rain = 0
KLO1 150349Z 18016KT 24/17 A2994 RMK A01 T02410166  RH  063%=      5-min Rain = 0
KLO1 150350Z 17015KT 24/17 A2994 RMK A01 T02410166  RH  063%=      5-min Rain = 0
KLO1 150351Z 17012KT 24/17 A2994 RMK A01 T02410166  RH  063%=      5-min Rain = 0
KLO1 150352Z 17012KT 24/17 A2994 RMK A01 T02410166  RH  063%=      5-min Rain = 0
KLO1 150353Z 18014KT 24/17 A2994 RMK A01 T02410167  RH  063%=      5-min Rain = 0
KLO1 150354Z 18013KT 24/17 A2994 RMK A01 T02420167  RH  063%=      5-min Rain = 0
KLO1 150355Z 17014KT 24/17 A2994 RMK A01 T02410167  RH  063%=      5-min Rain = 0
KLO1 150356Z 17015KT 24/17 A2994 RMK A01 T02420167  RH  063%=      5-min Rain = 0
KLO1 150357Z 17014G19KT 24/17 A2994 RMK A01 T02420167  RH  063%=      5-min Rain = 0
KLO1 150358Z 17014G19KT 24/17 A2994 RMK A01 T02420167  RH  063%=      5-min Rain = 0
KLO1 150359Z 17014KT 24/17 A2994 RMK A01 T02420166  RH  063%=      5-min Rain = 0
KLO1 150400Z 17014KT 24/17 A2994 RMK A01 T02420166  RH  063%=      5-min Rain = 0
KLO1 150401Z 17013KT 24/17 A2994 RMK A01 T02420166  RH  063%=      5-min Rain = 0
KLO1 150402Z 17014KT 24/17 A2994 RMK A01 T02420166  RH  063%=      5-min Rain = 0
KLO1 150403Z 17014KT 24/17 A2995 RMK A01 T02420167  RH  063%=      5-min Rain = 0
KLO1 150404Z 17014KT 24/17 A2995 RMK A01 T02420167  RH  063%=      5-min Rain = 0
KLO1 150405Z 17015KT 24/17 A2995 RMK A01 T02420166  RH  062%=      5-min Rain = 0
KLO1 150406Z 17016KT 24/17 A2995 RMK A01 T02420166  RH  062%=      5-min Rain = 0
KLO1 150407Z 17014KT 24/17 A2995 RMK A01 T02430166  RH  062%=      5-min Rain = 0
KLO1 150408Z 17012KT 24/17 A2995 RMK A01 T02430165  RH  062%=      5-min Rain = 0
KLO1 150409Z 17017KT 24/17 A2995 RMK A01 T02430165  RH  062%=      5-min Rain = 0
KLO1 150410Z 17016KT 24/16 A2995 RMK A01 T02430164  RH  061%=      5-min Rain = 0
KLO1 150411Z 17016KT 24/16 A2995 RMK A01 T02430164  RH  061%=      5-min Rain = 0
KLO1 150412Z 17016KT 24/16 A2995 RMK A01 T02430164  RH  061%=      5-min Rain = 0
KLO1 150413Z 17016KT 24/16 A2995 RMK A01 T02430163  RH  061%=      5-min Rain = 0
KLO1 150414Z 17017KT 24/16 A2995 RMK A01 T02430163  RH  061%=      5-min Rain = 0
KLO1 150415Z 17016KT 24/16 A2995 RMK A01 T02430162  RH  061%=      5-min Rain = 0
KLO1 150416Z 17018KT 24/16 A2994 RMK A01 T02430162  RH  060%=      5-min Rain = 0
KLO1 150417Z 17016KT 24/16 A2995 RMK A01 T02430162  RH  060%=      5-min Rain = 0
KLO1 150418Z 17016G21KT 24/16 A2995 RMK A01 T02430162  RH  060%=      5-min Rain = 0
KLO1 150419Z 17015KT 24/16 A2995 RMK A01 T02430162  RH  061%=      5-min Rain = 0
KLO1 150420Z 17013KT 24/16 A2995 RMK A01 T02420162  RH  061%=      5-min Rain = 0
KLO1 150421Z 17015KT 24/16 A2995 RMK A01 T02420162  RH  061%=      5-min Rain = 0
KLO1 150422Z 17015KT 24/16 A2995 RMK A01 T02420162  RH  061%=      5-min Rain = 0
KLO1 150423Z 16014KT 24/16 A2995 RMK A01 T02410162  RH  061%=      5-min Rain = 0
KLO1 150424Z 16014KT 24/16 A2995 RMK A01 T02410162  RH  061%=      5-min Rain = 0
KLO1 150425Z 16015KT 24/16 A2995 RMK A01 T02410162  RH  061%=      5-min Rain = 0
KLO1 150426Z 16014KT 24/16 A2995 RMK A01 T02410162  RH  061%=      5-min Rain = 0
KLO1 150427Z 16016KT 24/16 A2995 RMK A01 T02410163  RH  062%=      5-min Rain = 0
KLO1 150428Z 16013KT 24/16 A2995 RMK A01 T02410163  RH  062%=      5-min Rain = 0
KLO1 150429Z 17016KT 24/16 A2995 RMK A01 T02410164  RH  062%=      5-min Rain = 0
KLO1 150430Z 16014KT 24/16 A2995 RMK A01 T02410164  RH  062%=      5-min Rain = 0
KLO1 150431Z 17015KT 24/16 A2995 RMK A01 T02410164  RH  062%=      5-min Rain = 0
KLO1 150432Z 16014KT 24/16 A2995 RMK A01 T02410164  RH  062%=      5-min Rain = 0
KLO1 150433Z 16014KT 24/16 A2995 RMK A01 T02410164  RH  062%=      5-min Rain = 0
KLO1 150434Z 16013KT 24/16 A2995 RMK A01 T02410164  RH  062%=      5-min Rain = 0
KLO1 150435Z 17013KT 24/16 A2995 RMK A01 T02410164  RH  062%=      5-min Rain = 0
KLO1 150436Z 17012KT 24/16 A2995 RMK A01 T02400164  RH  062%=      5-min Rain = 0
KLO1 150437Z 16014KT 24/17 A2995 RMK A01 T02410165  RH  062%=      5-min Rain = 0
KLO1 150438Z 17013KT 24/16 A2995 RMK A01 T02400164  RH  062%=      5-min Rain = 0
KLO1 150439Z 17012KT 24/16 A2995 RMK A01 T02400164  RH  062%=      5-min Rain = 0
KLO1 150440Z 16013KT 24/16 A2995 RMK A01 T02410164  RH  062%=      5-min Rain = 0
KLO1 150441Z 17014KT 24/17 A2995 RMK A01 T02410165  RH  062%=      5-min Rain = 0
KLO1 150442Z 16014KT 24/16 A2995 RMK A01 T02410164  RH  062%=      5-min Rain = 0
KLO1 150443Z 16013KT 24/16 A2995 RMK A01 T02400164  RH  062%=      5-min Rain = 0
KLO1 150444Z 16013KT 24/16 A2995 RMK A01 T02400164  RH  062%=      5-min Rain = 0
KLO1 150445Z 17012KT 24/16 A2995 RMK A01 T02400164  RH  062%=      5-min Rain = 0
KLO1 150446Z 17013KT 24/16 A2995 RMK A01 T02400163  RH  062%=      5-min Rain = 0
KLO1 150447Z 16013KT 24/16 A2995 RMK A01 T02400163  RH  062%=      5-min Rain = 0
KLO1 150448Z 17011KT 24/16 A2995 RMK A01 T02400163  RH  062%=      5-min Rain = 0
KLO1 150449Z 17013KT 24/16 A2995 RMK A01 T02390162  RH  062%=      5-min Rain = 0
KLO1 150450Z 17011KT 24/16 A2995 RMK A01 T02390162  RH  062%=      5-min Rain = 0
KLO1 150451Z 16011KT 24/16 A2995 RMK A01 T02390161  RH  062%=      5-min Rain = 0
KLO1 150452Z 17014KT 24/16 A2995 RMK A01 T02380160  RH  062%=      5-min Rain = 0
KLO1 150453Z 17013KT 24/16 A2995 RMK A01 T02380160  RH  062%=      5-min Rain = 0
KLO1 150454Z 17012KT 24/16 A2995 RMK A01 T02380160  RH  061%=      5-min Rain = 0
KLO1 150455Z 17011KT 24/16 A2995 RMK A01 T02370159  RH  061%=      5-min Rain = 0
KLO1 150456Z 16013KT 24/16 A2995 RMK A01 T02370159  RH  061%=      5-min Rain = 0
KLO1 150457Z 17013KT 24/16 A2995 RMK A01 T02370158  RH  061%=      5-min Rain = 0
KLO1 150458Z 16011KT 24/16 A2995 RMK A01 T02370158  RH  061%=      5-min Rain = 0
KLO1 150459Z 17013KT 24/16 A2995 RMK A01 T02360158  RH  061%=      5-min Rain = 0

Page generated in 0.1707 seconds.